NASA5 KEFD-KEFD
Flight info
| Callsign | NASA5 |
|---|---|
| Flight time | N/A |
| Altitude | 35000 |
| Route | 290000N0900000W 29N090W 2830N08948W 2830N08914W 2828N08914W 2828N08948W 2826N08948W 2826N08914W 2824N08914W 2824N08948W 2822N08948W 2822N08914W 2820N08914W 2820N08948W 2818N08948W 2818N08914W 2816N08914W 2816N08948W 2814N08948W 2814N08914W 2812N08914W 2812N08948W 2810N08948W 2810N08914W 2808N08914W 2808N08948W 283000N0895920W 280800N0895920W 280800N0900136W 283000N0900136W 283000N0900352W 280800N0900352W 280800N0900608W 283000N0900608W 283000N0900824W 280800N0900824W 280800N0901040W 283000N0901040W 283000N0901256W 280800N0901256W 280800N0901512W 283000N0901512W 283000N0901728W 280800N0901728W 280800N0901944W 283000N0901944W 2830N09022W 2808N09022W 280800N0902416W 283000N0902416W 283000N0902632W 280800N0902632W 280800N0902848W 283000N0902848W 283000N0903104W 280800N0903104W 280800N0903320W 283000N0903320W 283000N0904440W 283000N0911840W 282800N0911840W 282800N0904440W 282600N0904440W 282600N0911840W 282400N0911840W 282400N0904440W 282200N0904440W 282200N0911840W 282000N0911840W 282000N0904440W 281800N0904440W 281800N0911840W 281600N0911840W 281600N0904440W 281400N0904440W 281400N0911840W 281200N0911840W 281200N0904440W 281000N0904440W 281000N0911840W BBURT TKNIQ3 |
| Aircraft | GLF5/M-SBDE2E3FGHIJ3J4J5P2RWXY/LB1D1 |
Departure
| Time | 2026-05-07 20:54 |
|---|---|
| Airport | Ellington Airport (KEFD) |
Arrival
| Time | N/A |
|---|---|
| Airport | Ellington Airport (KEFD) |
| Time | Latitude | Longitude | Altitude | Speed | Heading |
|---|---|---|---|---|---|
| 2026-05-07 20:33 | 29.61143 | -95.16748 | 36 ft | 0 kts | 180° |
| 2026-05-07 20:48 | 29.61136 | -95.16747 | 36 ft | 1 kts | 168° |
| 2026-05-07 20:48 | 29.61129 | -95.16714 | 35 ft | 9 kts | 76° |
| 2026-05-07 20:48 | 29.61114 | -95.16660 | 34 ft | 6 kts | 155° |
| 2026-05-07 20:48 | 29.61058 | -95.16651 | 34 ft | 13 kts | 178° |
| 2026-05-07 20:49 | 29.60927 | -95.16648 | 34 ft | 19 kts | 178° |
| 2026-05-07 20:49 | 29.60801 | -95.16646 | 34 ft | 17 kts | 180° |
| 2026-05-07 20:49 | 29.60690 | -95.16646 | 34 ft | 14 kts | 180° |
| 2026-05-07 20:49 | 29.60632 | -95.16646 | 34 ft | 0 kts | 180° |
| 2026-05-07 20:50 | 29.60567 | -95.16647 | 34 ft | 14 kts | 180° |
| 2026-05-07 20:50 | 29.60442 | -95.16637 | 33 ft | 22 kts | 178° |
| 2026-05-07 20:50 | 29.60256 | -95.16632 | 31 ft | 29 kts | 178° |
| 2026-05-07 20:51 | 29.60062 | -95.16627 | 31 ft | 26 kts | 180° |
| 2026-05-07 20:51 | 29.59888 | -95.16620 | 31 ft | 23 kts | 176° |
| 2026-05-07 20:51 | 29.59737 | -95.16623 | 31 ft | 20 kts | 177° |
| 2026-05-07 20:51 | 29.59605 | -95.16615 | 31 ft | 18 kts | 179° |
| 2026-05-07 20:52 | 29.59478 | -95.16614 | 31 ft | 16 kts | 180° |
| 2026-05-07 20:52 | 29.59399 | -95.16604 | 31 ft | 5 kts | 150° |
| 2026-05-07 20:52 | 29.59377 | -95.16578 | 31 ft | 3 kts | 112° |
| 2026-05-07 20:52 | 29.59375 | -95.16508 | 31 ft | 18 kts | 90° |
| 2026-05-07 20:53 | 29.59409 | -95.16394 | 31 ft | 14 kts | 26° |
| 2026-05-07 20:53 | 29.59459 | -95.16387 | 31 ft | 0 kts | 0° |
| 2026-05-07 20:53 | 29.59726 | -95.16392 | 31 ft | 79 kts | 359° |
| 2026-05-07 20:53 | 29.60523 | -95.16407 | 42 ft | 146 kts | 359° |
| 2026-05-07 20:54 | 29.61643 | -95.16436 | 471 ft | 176 kts | 0° |
| 2026-05-07 20:54 | 29.62961 | -95.16254 | 1112 ft | 206 kts | 26° |
| 2026-05-07 20:54 | 29.63810 | -95.15155 | 1916 ft | 185 kts | 75° |
| 2026-05-07 20:54 | 29.63853 | -95.13651 | 2718 ft | 197 kts | 92° |
| 2026-05-07 20:55 | 29.63749 | -95.12051 | 3465 ft | 208 kts | 92° |
| 2026-05-07 20:55 | 29.63453 | -95.10427 | 4187 ft | 220 kts | 121° |
| 2026-05-07 20:55 | 29.62300 | -95.09273 | 4991 ft | 229 kts | 149° |
| 2026-05-07 20:55 | 29.60874 | -95.08351 | 5742 ft | 241 kts | 150° |
| 2026-05-07 20:56 | 29.59385 | -95.07392 | 6492 ft | 252 kts | 151° |
| 2026-05-07 20:56 | 29.57828 | -95.06396 | 7242 ft | 263 kts | 152° |
| 2026-05-07 20:56 | 29.56191 | -95.05351 | 7993 ft | 274 kts | 152° |
| 2026-05-07 20:56 | 29.54512 | -95.04282 | 8726 ft | 283 kts | 152° |
| 2026-05-07 20:57 | 29.52754 | -95.03163 | 9464 ft | 293 kts | 153° |
| 2026-05-07 20:57 | 29.50986 | -95.02038 | 10292 ft | 298 kts | 153° |
| 2026-05-07 20:57 | 29.49051 | -95.00810 | 10362 ft | 333 kts | 153° |
| 2026-05-07 20:57 | 29.46951 | -94.99477 | 10593 ft | 358 kts | 153° |
| 2026-05-07 20:58 | 29.44765 | -94.98083 | 11601 ft | 357 kts | 154° |
| 2026-05-07 20:58 | 29.42594 | -94.96703 | 12503 ft | 360 kts | 154° |
| 2026-05-07 20:58 | 29.40404 | -94.95313 | 13255 ft | 365 kts | 155° |
| 2026-05-07 20:58 | 29.38157 | -94.93887 | 14092 ft | 369 kts | 155° |
| 2026-05-07 20:59 | 29.35910 | -94.92463 | 14826 ft | 375 kts | 156° |
| 2026-05-07 20:59 | 29.33625 | -94.91015 | 15636 ft | 380 kts | 157° |
| 2026-05-07 20:59 | 29.31282 | -94.89531 | 16424 ft | 384 kts | 157° |
| 2026-05-07 20:59 | 29.28952 | -94.88055 | 17167 ft | 390 kts | 158° |
| 2026-05-07 21:00 | 29.26736 | -94.86144 | 17841 ft | 411 kts | 139° |
| 2026-05-07 21:00 | 29.25105 | -94.83384 | 18562 ft | 425 kts | 126° |
| 2026-05-07 21:00 | 29.23587 | -94.80454 | 19242 ft | 431 kts | 127° |
| 2026-05-07 21:00 | 29.22032 | -94.77486 | 19892 ft | 437 kts | 127° |
| 2026-05-07 21:01 | 29.20491 | -94.74556 | 20692 ft | 440 kts | 127° |
| 2026-05-07 21:01 | 29.18894 | -94.71528 | 21330 ft | 447 kts | 127° |
| 2026-05-07 21:01 | 29.17271 | -94.68450 | 22049 ft | 451 kts | 127° |
| 2026-05-07 21:01 | 29.15654 | -94.65390 | 22580 ft | 459 kts | 127° |
| 2026-05-07 21:02 | 29.13984 | -94.62230 | 23350 ft | 461 kts | 127° |
| 2026-05-07 21:02 | 29.12322 | -94.59089 | 23946 ft | 468 kts | 127° |
| 2026-05-07 21:02 | 29.10644 | -94.55918 | 24653 ft | 472 kts | 127° |
| 2026-05-07 21:02 | 29.08931 | -94.52688 | 25343 ft | 478 kts | 127° |
| 2026-05-07 21:03 | 29.07205 | -94.49432 | 26053 ft | 482 kts | 127° |
| 2026-05-07 21:03 | 29.05463 | -94.46148 | 26716 ft | 488 kts | 127° |
| 2026-05-07 21:03 | 29.03681 | -94.42795 | 27232 ft | 495 kts | 127° |
| 2026-05-07 21:03 | 29.01887 | -94.39417 | 27963 ft | 498 kts | 127° |
| 2026-05-07 21:04 | 29.00293 | -94.35908 | 28409 ft | 514 kts | 113° |
| 2026-05-07 21:04 | 28.99631 | -94.31866 | 28911 ft | 528 kts | 94° |
| 2026-05-07 21:04 | 28.99696 | -94.27635 | 29561 ft | 530 kts | 91° |
| 2026-05-07 21:04 | 28.99751 | -94.23459 | 30000 ft | 537 kts | 92° |
| 2026-05-07 21:05 | 28.99785 | -94.19155 | 30505 ft | 541 kts | 92° |
| 2026-05-07 21:05 | 28.99813 | -94.14900 | 31354 ft | 538 kts | 92° |
| 2026-05-07 21:05 | 28.99837 | -94.10626 | 32173 ft | 535 kts | 93° |
| 2026-05-07 21:05 | 28.99858 | -94.06409 | 32780 ft | 536 kts | 93° |
| 2026-05-07 21:06 | 28.99879 | -94.02184 | 33520 ft | 534 kts | 93° |
| 2026-05-07 21:06 | 28.99899 | -93.97913 | 34246 ft | 533 kts | 93° |
| 2026-05-07 21:06 | 28.99916 | -93.93692 | 34859 ft | 533 kts | 93° |
| 2026-05-07 21:06 | 28.99932 | -93.89475 | 35524 ft | 532 kts | 93° |
| 2026-05-07 21:07 | 28.99947 | -93.85235 | 36114 ft | 532 kts | 92° |
| 2026-05-07 21:07 | 28.99962 | -93.81011 | 36665 ft | 532 kts | 92° |
| 2026-05-07 21:07 | 28.99976 | -93.76783 | 37250 ft | 531 kts | 92° |
| 2026-05-07 21:07 | 28.99985 | -93.72576 | 37721 ft | 532 kts | 92° |
| 2026-05-07 21:08 | 28.99995 | -93.68349 | 38229 ft | 532 kts | 92° |
| 2026-05-07 21:08 | 29.00011 | -93.64180 | 38785 ft | 530 kts | 92° |
| 2026-05-07 21:08 | 29.00029 | -93.59969 | 39261 ft | 531 kts | 92° |
| 2026-05-07 21:08 | 29.00045 | -93.55750 | 39685 ft | 532 kts | 92° |
| 2026-05-07 21:09 | 29.00061 | -93.51572 | 40230 ft | 530 kts | 92° |
| 2026-05-07 21:09 | 29.00075 | -93.47357 | 40752 ft | 529 kts | 92° |
| 2026-05-07 21:09 | 29.00087 | -93.43173 | 41137 ft | 530 kts | 92° |
| 2026-05-07 21:09 | 29.00100 | -93.39009 | 41670 ft | 528 kts | 92° |
| 2026-05-07 21:10 | 29.00109 | -93.34782 | 41982 ft | 530 kts | 92° |
| 2026-05-07 21:10 | 29.00117 | -93.30625 | 42340 ft | 529 kts | 92° |
| 2026-05-07 21:10 | 29.00126 | -93.26455 | 42733 ft | 528 kts | 92° |
| 2026-05-07 21:10 | 29.00132 | -93.22275 | 43071 ft | 528 kts | 92° |
| 2026-05-07 21:11 | 29.00137 | -93.18074 | 43333 ft | 529 kts | 92° |
| 2026-05-07 21:11 | 29.00139 | -93.13878 | 43637 ft | 528 kts | 92° |
| 2026-05-07 21:11 | 29.00144 | -93.05501 | 44173 ft | 529 kts | 92° |
| 2026-05-07 21:12 | 29.00142 | -93.01296 | 44449 ft | 528 kts | 91° |
| 2026-05-07 21:12 | 29.00142 | -92.97115 | 44763 ft | 527 kts | 92° |
| 2026-05-07 21:12 | 29.00138 | -92.92996 | 44960 ft | 528 kts | 92° |
| 2026-05-07 21:12 | 29.00134 | -92.88752 | 44989 ft | 532 kts | 92° |
| 2026-05-07 21:13 | 29.00121 | -92.80239 | 44987 ft | 541 kts | 92° |
| 2026-05-07 21:13 | 29.00103 | -92.71627 | 44991 ft | 549 kts | 91° |
| 2026-05-07 21:14 | 29.00079 | -92.62886 | 44987 ft | 557 kts | 91° |
| 2026-05-07 21:14 | 29.00048 | -92.53979 | 44980 ft | 565 kts | 91° |
| 2026-05-07 21:15 | 29.00012 | -92.44947 | 44980 ft | 572 kts | 91° |
| 2026-05-07 21:15 | 28.99968 | -92.35841 | 44977 ft | 579 kts | 91° |
| 2026-05-07 21:16 | 28.99919 | -92.26708 | 44958 ft | 576 kts | 92° |
| 2026-05-07 21:16 | 28.99863 | -92.17592 | 44965 ft | 571 kts | 92° |
| 2026-05-07 21:17 | 28.99801 | -92.08585 | 44960 ft | 571 kts | 92° |
| 2026-05-07 21:17 | 28.99733 | -91.99496 | 44956 ft | 573 kts | 92° |
| 2026-05-07 21:18 | 28.99659 | -91.90398 | 44962 ft | 574 kts | 92° |
| 2026-05-07 21:18 | 28.99579 | -91.81318 | 44977 ft | 572 kts | 92° |
| 2026-05-07 21:19 | 28.99492 | -91.72232 | 44959 ft | 571 kts | 92° |
| 2026-05-07 21:19 | 28.99402 | -91.63208 | 44973 ft | 571 kts | 91° |
| 2026-05-07 21:20 | 28.99303 | -91.54153 | 44968 ft | 571 kts | 91° |
| 2026-05-07 21:20 | 28.99199 | -91.45112 | 44973 ft | 570 kts | 91° |
| 2026-05-07 21:21 | 28.99088 | -91.36049 | 44969 ft | 570 kts | 91° |
| 2026-05-07 21:21 | 28.98973 | -91.27014 | 44963 ft | 569 kts | 92° |
| 2026-05-07 21:22 | 28.99713 | -91.18077 | 45006 ft | 568 kts | 78° |
| 2026-05-07 21:22 | 29.01220 | -91.09229 | 44950 ft | 570 kts | 78° |
| 2026-05-07 21:23 | 29.02707 | -91.00408 | 44962 ft | 569 kts | 78° |
| 2026-05-07 21:23 | 29.04195 | -90.91549 | 44963 ft | 569 kts | 78° |
| 2026-05-07 21:24 | 29.05679 | -90.82671 | 44971 ft | 569 kts | 78° |
| 2026-05-07 21:24 | 29.07155 | -90.73801 | 44973 ft | 569 kts | 78° |
| 2026-05-07 21:25 | 29.08623 | -90.64951 | 44969 ft | 568 kts | 78° |
| 2026-05-07 21:25 | 29.10085 | -90.56092 | 44974 ft | 569 kts | 78° |
| 2026-05-07 21:26 | 29.11547 | -90.47192 | 44973 ft | 569 kts | 78° |
| 2026-05-07 21:26 | 29.13001 | -90.38309 | 44134 ft | 576 kts | 78° |
| 2026-05-07 21:27 | 29.13730 | -90.33832 | 43494 ft | 569 kts | 79° |
| 2026-05-07 21:27 | 29.14445 | -90.29453 | 42788 ft | 563 kts | 79° |
| 2026-05-07 21:27 | 29.15153 | -90.25088 | 42096 ft | 556 kts | 79° |
| 2026-05-07 21:27 | 29.15832 | -90.20741 | 41400 ft | 550 kts | 83° |
| 2026-05-07 21:28 | 29.15769 | -90.16432 | 40738 ft | 536 kts | 104° |
| 2026-05-07 21:28 | 29.14625 | -90.12524 | 40145 ft | 515 kts | 124° |
| 2026-05-07 21:28 | 29.12684 | -90.09171 | 39589 ft | 499 kts | 135° |
| 2026-05-07 21:28 | 29.10183 | -90.06527 | 38968 ft | 479 kts | 154° |
| 2026-05-07 21:29 | 29.07388 | -90.04552 | 38411 ft | 478 kts | 159° |
| 2026-05-07 21:29 | 29.04474 | -90.02715 | 37828 ft | 479 kts | 160° |
| 2026-05-07 21:29 | 29.01516 | -90.00925 | 37246 ft | 479 kts | 161° |
| 2026-05-07 21:29 | 28.98520 | -89.99397 | 36655 ft | 464 kts | 169° |
| 2026-05-07 21:30 | 28.95492 | -89.98189 | 36091 ft | 461 kts | 169° |
| 2026-05-07 21:30 | 28.92471 | -89.96979 | 35504 ft | 457 kts | 169° |
| 2026-05-07 21:30 | 28.89468 | -89.95776 | 34984 ft | 453 kts | 169° |
| 2026-05-07 21:30 | 28.86527 | -89.94595 | 34981 ft | 449 kts | 169° |
| 2026-05-07 21:31 | 28.80578 | -89.92215 | 34973 ft | 459 kts | 169° |
| 2026-05-07 21:31 | 28.74506 | -89.89781 | 34963 ft | 453 kts | 169° |
| 2026-05-07 21:32 | 28.71574 | -89.88604 | 34957 ft | 435 kts | 169° |
| 2026-05-07 21:32 | 28.68762 | -89.87480 | 34953 ft | 423 kts | 169° |
| 2026-05-07 21:32 | 28.63192 | -89.85265 | 34978 ft | 429 kts | 169° |
| 2026-05-07 21:33 | 28.57494 | -89.82993 | 34971 ft | 436 kts | 169° |
| 2026-05-07 21:33 | 28.52110 | -89.79696 | 35012 ft | 463 kts | 140° |
| 2026-05-07 21:34 | 28.50249 | -89.76608 | 34985 ft | 482 kts | 120° |
| 2026-05-07 21:34 | 28.49357 | -89.72910 | 34993 ft | 492 kts | 98° |
| 2026-05-07 21:34 | 28.49536 | -89.69075 | 35007 ft | 491 kts | 83° |
| 2026-05-07 21:34 | 28.49866 | -89.65215 | 34952 ft | 489 kts | 89° |
| 2026-05-07 21:35 | 28.50012 | -89.57496 | 34973 ft | 488 kts | 92° |
| 2026-05-07 21:35 | 28.50027 | -89.49843 | 34973 ft | 488 kts | 92° |
| 2026-05-07 21:36 | 28.50026 | -89.42121 | 34971 ft | 487 kts | 92° |
| 2026-05-07 21:36 | 28.50019 | -89.34431 | 34975 ft | 487 kts | 93° |
| 2026-05-07 21:37 | 28.50007 | -89.26707 | 34959 ft | 487 kts | 92° |
| 2026-05-07 21:37 | 28.49861 | -89.22932 | 34942 ft | 482 kts | 104° |
| 2026-05-07 21:37 | 28.49301 | -89.19205 | 34964 ft | 485 kts | 95° |
| 2026-05-07 21:38 | 28.48419 | -89.11697 | 34997 ft | 471 kts | 122° |
| 2026-05-07 21:38 | 28.46583 | -89.08713 | 34975 ft | 454 kts | 144° |
| 2026-05-07 21:38 | 28.44066 | -89.06756 | 34998 ft | 430 kts | 166° |
| 2026-05-07 21:39 | 28.41255 | -89.06023 | 34996 ft | 406 kts | 187° |
| 2026-05-07 21:39 | 28.38550 | -89.06566 | 34994 ft | 384 kts | 210° |
| 2026-05-07 21:39 | 28.33970 | -89.09440 | 34953 ft | 366 kts | 216° |
| 2026-05-07 21:40 | 28.29697 | -89.12368 | 34937 ft | 346 kts | 228° |
| 2026-05-07 21:40 | 28.28369 | -89.14551 | 35023 ft | 339 kts | 251° |
| 2026-05-07 21:40 | 28.27928 | -89.17172 | 34989 ft | 347 kts | 266° |
| 2026-05-07 21:41 | 28.28708 | -89.22661 | 34964 ft | 357 kts | 281° |
| 2026-05-07 21:41 | 28.30209 | -89.27997 | 34961 ft | 355 kts | 284° |
| 2026-05-07 21:42 | 28.31857 | -89.33282 | 34959 ft | 355 kts | 284° |
| 2026-05-07 21:42 | 28.33538 | -89.38577 | 34959 ft | 355 kts | 284° |
| 2026-05-07 21:43 | 28.35210 | -89.43824 | 34957 ft | 354 kts | 284° |
| 2026-05-07 21:43 | 28.36884 | -89.49084 | 34957 ft | 356 kts | 284° |
| 2026-05-07 21:44 | 28.38702 | -89.54325 | 34931 ft | 363 kts | 297° |
| 2026-05-07 21:44 | 28.40542 | -89.56358 | 35007 ft | 383 kts | 320° |
| 2026-05-07 21:44 | 28.43111 | -89.57474 | 35005 ft | 407 kts | 339° |
| 2026-05-07 21:45 | 28.48720 | -89.58778 | 34961 ft | 412 kts | 339° |
| 2026-05-07 21:45 | 28.54370 | -89.60081 | 34957 ft | 412 kts | 339° |
| 2026-05-07 21:46 | 28.59976 | -89.61375 | 34947 ft | 411 kts | 339° |
| 2026-05-07 21:46 | 28.65592 | -89.62676 | 34951 ft | 410 kts | 339° |
| 2026-05-07 21:47 | 28.71049 | -89.64308 | 34963 ft | 392 kts | 324° |
| 2026-05-07 21:47 | 28.75439 | -89.67741 | 34975 ft | 380 kts | 312° |
| 2026-05-07 21:48 | 28.79472 | -89.71648 | 34972 ft | 378 kts | 309° |
| 2026-05-07 21:48 | 28.83395 | -89.75593 | 34970 ft | 375 kts | 309° |
| 2026-05-07 21:49 | 28.87308 | -89.79562 | 34971 ft | 375 kts | 309° |
| 2026-05-07 21:49 | 28.91204 | -89.83524 | 34972 ft | 377 kts | 309° |
| 2026-05-07 21:50 | 28.95142 | -89.87530 | 34968 ft | 377 kts | 309° |
| 2026-05-07 21:50 | 28.99041 | -89.91502 | 34972 ft | 376 kts | 308° |
| 2026-05-07 21:51 | 29.02960 | -89.95500 | 34969 ft | 377 kts | 308° |
| 2026-05-07 21:51 | 29.06883 | -89.99506 | 34975 ft | 376 kts | 308° |
| 2026-05-07 21:52 | 29.10786 | -90.03494 | 34969 ft | 377 kts | 309° |
| 2026-05-07 21:52 | 29.14704 | -90.07502 | 34965 ft | 377 kts | 308° |
| 2026-05-07 21:53 | 29.18924 | -90.11108 | 34811 ft | 402 kts | 329° |
| 2026-05-07 21:53 | 29.21831 | -90.11858 | 33901 ft | 456 kts | 345° |
| 2026-05-07 21:53 | 29.25105 | -90.12228 | 33111 ft | 490 kts | 346° |
| 2026-05-07 21:54 | 29.28624 | -90.12652 | 32354 ft | 520 kts | 346° |
| 2026-05-07 21:54 | 29.32268 | -90.13107 | 31608 ft | 529 kts | 346° |
| 2026-05-07 21:54 | 29.35908 | -90.13562 | 30848 ft | 524 kts | 346° |
| 2026-05-07 21:54 | 29.39518 | -90.14007 | 30084 ft | 517 kts | 346° |
| 2026-05-07 21:55 | 29.43058 | -90.14424 | 29331 ft | 512 kts | 346° |
| 2026-05-07 21:55 | 29.46593 | -90.14843 | 28580 ft | 508 kts | 346° |
| 2026-05-07 21:55 | 29.50079 | -90.15253 | 27850 ft | 503 kts | 346° |
| 2026-05-07 21:55 | 29.53599 | -90.15546 | 27070 ft | 510 kts | 354° |
| 2026-05-07 21:56 | 29.57139 | -90.15162 | 26366 ft | 518 kts | 359° |
| 2026-05-07 21:56 | 29.60769 | -90.14717 | 25457 ft | 525 kts | 359° |
| 2026-05-07 21:56 | 29.64386 | -90.14298 | 24202 ft | 527 kts | 359° |
| 2026-05-07 21:56 | 29.68010 | -90.13897 | 23023 ft | 525 kts | 359° |
| 2026-05-07 21:57 | 29.71605 | -90.13622 | 21791 ft | 496 kts | 352° |
| 2026-05-07 21:57 | 29.74728 | -90.14304 | 20270 ft | 435 kts | 332° |
| 2026-05-07 21:57 | 29.77447 | -90.15453 | 18818 ft | 404 kts | 328° |
| 2026-05-07 21:57 | 29.79618 | -90.17247 | 17439 ft | 386 kts | 305° |
| 2026-05-07 21:58 | 29.80925 | -90.19865 | 16070 ft | 384 kts | 283° |
| 2026-05-07 21:58 | 29.81057 | -90.22890 | 15338 ft | 369 kts | 254° |
| 2026-05-07 21:58 | 29.79962 | -90.25369 | 15719 ft | 342 kts | 230° |
| 2026-05-07 21:58 | 29.78077 | -90.26935 | 15993 ft | 335 kts | 206° |
| 2026-05-07 21:59 | 29.75772 | -90.27406 | 16008 ft | 342 kts | 187° |
| 2026-05-07 21:59 | 29.73362 | -90.27386 | 15969 ft | 341 kts | 185° |
| 2026-05-07 21:59 | 29.70993 | -90.27328 | 15971 ft | 339 kts | 185° |
| 2026-05-07 21:59 | 29.68643 | -90.27264 | 15972 ft | 337 kts | 185° |
| 2026-05-07 22:00 | 29.66298 | -90.27200 | 15967 ft | 336 kts | 185° |
| 2026-05-07 22:00 | 29.63975 | -90.27136 | 15972 ft | 335 kts | 185° |
| 2026-05-07 22:00 | 29.61625 | -90.27072 | 15965 ft | 334 kts | 185° |
| 2026-05-07 22:00 | 29.59314 | -90.27010 | 15970 ft | 333 kts | 185° |
| 2026-05-07 22:01 | 29.56972 | -90.26942 | 15974 ft | 335 kts | 182° |
| 2026-05-07 22:01 | 29.54698 | -90.26215 | 15856 ft | 354 kts | 158° |
| 2026-05-07 22:01 | 29.52679 | -90.24363 | 14925 ft | 392 kts | 131° |
| 2026-05-07 22:01 | 29.51409 | -90.21550 | 14057 ft | 413 kts | 107° |
| 2026-05-07 22:02 | 29.51168 | -90.18237 | 13167 ft | 424 kts | 83° |
| 2026-05-07 22:02 | 29.52041 | -90.15049 | 12293 ft | 424 kts | 59° |
| 2026-05-07 22:02 | 29.53877 | -90.12485 | 11406 ft | 419 kts | 36° |
| 2026-05-07 22:02 | 29.56408 | -90.10922 | 10507 ft | 409 kts | 13° |
| 2026-05-07 22:03 | 29.59155 | -90.10485 | 9622 ft | 401 kts | 360° |
| 2026-05-07 22:03 | 29.61937 | -90.10367 | 8658 ft | 400 kts | 359° |
| 2026-05-07 22:03 | 29.64714 | -90.10281 | 7701 ft | 401 kts | 359° |
| 2026-05-07 22:03 | 29.67542 | -90.10200 | 6731 ft | 404 kts | 359° |
| 2026-05-07 22:04 | 29.70314 | -90.10129 | 6043 ft | 401 kts | 359° |
| 2026-05-07 22:04 | 29.72902 | -90.10054 | 5410 ft | 339 kts | 360° |
| 2026-05-07 22:04 | 29.75023 | -90.09441 | 4328 ft | 299 kts | 27° |
| 2026-05-07 22:04 | 29.76648 | -90.08248 | 3446 ft | 267 kts | 32° |
| 2026-05-07 22:05 | 29.78107 | -90.07153 | 2800 ft | 227 kts | 32° |
| 2026-05-07 22:05 | 29.79368 | -90.06324 | 2169 ft | 203 kts | 27° |
| 2026-05-07 22:05 | 29.80544 | -90.05504 | 1338 ft | 194 kts | 32° |
| 2026-05-07 22:05 | 29.81578 | -90.04587 | 400 ft | 193 kts | 39° |
| 2026-05-07 22:06 | 29.82469 | -90.03590 | 12 ft | 161 kts | 44° |
| 2026-05-07 22:06 | 29.82872 | -90.03140 | 11 ft | 0 kts | 44° |
| 2026-05-07 22:06 | 29.82875 | -90.03136 | 11 ft | 0 kts | 44° |
| 2026-05-07 22:10 | 29.82969 | -90.03031 | 11 ft | 57 kts | 44° |
| 2026-05-07 22:10 | 29.83484 | -90.02460 | 11 ft | 142 kts | 44° |
| 2026-05-07 22:11 | 29.84336 | -90.01501 | 219 ft | 188 kts | 44° |
| 2026-05-07 22:11 | 29.85250 | -90.00388 | 890 ft | 209 kts | 54° |
| 2026-05-07 22:11 | 29.85520 | -89.98820 | 1332 ft | 192 kts | 107° |
| 2026-05-07 22:11 | 29.84702 | -89.97624 | 2134 ft | 205 kts | 153° |
| 2026-05-07 22:12 | 29.83299 | -89.97414 | 2952 ft | 214 kts | 199° |
| 2026-05-07 22:12 | 29.81994 | -89.98269 | 3774 ft | 228 kts | 217° |
| 2026-05-07 22:12 | 29.80638 | -89.99380 | 4561 ft | 250 kts | 218° |
| 2026-05-07 22:12 | 29.79184 | -90.00573 | 5323 ft | 266 kts | 218° |
| 2026-05-07 22:13 | 29.77665 | -90.01812 | 6062 ft | 268 kts | 217° |
| 2026-05-07 22:13 | 29.76022 | -90.02827 | 6784 ft | 273 kts | 206° |
| 2026-05-07 22:13 | 29.74173 | -90.03516 | 7774 ft | 284 kts | 198° |
| 2026-05-07 22:13 | 29.72276 | -90.04001 | 8877 ft | 287 kts | 194° |
| 2026-05-07 22:14 | 29.70269 | -90.04380 | 9821 ft | 295 kts | 192° |
| 2026-05-07 22:14 | 29.68241 | -90.04686 | 10872 ft | 298 kts | 191° |
| 2026-05-07 22:14 | 29.66187 | -90.04955 | 11927 ft | 300 kts | 191° |
| 2026-05-07 22:14 | 29.64110 | -90.05209 | 12939 ft | 303 kts | 191° |
| 2026-05-07 22:15 | 29.62028 | -90.05450 | 14059 ft | 302 kts | 191° |
| 2026-05-07 22:15 | 29.59957 | -90.05685 | 15074 ft | 304 kts | 192° |
| 2026-05-07 22:15 | 29.57826 | -90.05928 | 15872 ft | 313 kts | 192° |
| 2026-05-07 22:15 | 29.55632 | -90.06175 | 16739 ft | 322 kts | 192° |
| 2026-05-07 22:16 | 29.53398 | -90.06425 | 17589 ft | 330 kts | 192° |
| 2026-05-07 22:16 | 29.51091 | -90.06681 | 18428 ft | 338 kts | 193° |
| 2026-05-07 22:16 | 29.48740 | -90.06943 | 19271 ft | 345 kts | 193° |
| 2026-05-07 22:16 | 29.46296 | -90.07216 | 20123 ft | 353 kts | 193° |
| 2026-05-07 22:17 | 29.43836 | -90.07488 | 20955 ft | 360 kts | 193° |
| 2026-05-07 22:17 | 29.41336 | -90.07766 | 21786 ft | 366 kts | 193° |
| 2026-05-07 22:17 | 29.38817 | -90.08043 | 22612 ft | 369 kts | 193° |
| 2026-05-07 22:17 | 29.36236 | -90.08330 | 23471 ft | 372 kts | 194° |
| 2026-05-07 22:18 | 29.33661 | -90.08616 | 24319 ft | 376 kts | 194° |
| 2026-05-07 22:18 | 29.28421 | -90.09195 | 26036 ft | 382 kts | 194° |
| 2026-05-07 22:18 | 29.25776 | -90.09488 | 26890 ft | 383 kts | 194° |
| 2026-05-07 22:19 | 29.23121 | -90.09780 | 27747 ft | 384 kts | 195° |
| 2026-05-07 22:19 | 29.20458 | -90.10074 | 28611 ft | 383 kts | 195° |
| 2026-05-07 22:19 | 29.17805 | -90.10117 | 29435 ft | 398 kts | 180° |
| 2026-05-07 22:19 | 29.15152 | -90.09027 | 30362 ft | 414 kts | 162° |
| 2026-05-07 22:20 | 29.12608 | -90.07498 | 31246 ft | 411 kts | 162° |
| 2026-05-07 22:20 | 29.10113 | -90.06009 | 32102 ft | 406 kts | 162° |
| 2026-05-07 22:20 | 29.07619 | -90.04525 | 32881 ft | 404 kts | 162° |
| 2026-05-07 22:20 | 29.05058 | -90.03014 | 32946 ft | 420 kts | 162° |
| 2026-05-07 22:21 | 29.02407 | -90.01444 | 32982 ft | 431 kts | 161° |
| 2026-05-07 22:21 | 28.99804 | -89.99953 | 32941 ft | 409 kts | 167° |
| 2026-05-07 22:21 | 28.97192 | -89.98859 | 32950 ft | 386 kts | 171° |
| 2026-05-07 22:21 | 28.94702 | -89.97865 | 32949 ft | 373 kts | 171° |
| 2026-05-07 22:22 | 28.92242 | -89.96883 | 32953 ft | 370 kts | 171° |
| 2026-05-07 22:22 | 28.87303 | -89.94912 | 32984 ft | 382 kts | 171° |
| 2026-05-07 22:23 | 28.82249 | -89.92885 | 32970 ft | 386 kts | 170° |
| 2026-05-07 22:23 | 28.77191 | -89.90857 | 32966 ft | 382 kts | 171° |
| 2026-05-07 22:24 | 28.72181 | -89.88854 | 32972 ft | 382 kts | 170° |
| 2026-05-07 22:24 | 28.67138 | -89.86839 | 32969 ft | 384 kts | 170° |
| 2026-05-07 22:25 | 28.62092 | -89.84826 | 32973 ft | 385 kts | 170° |
| 2026-05-07 22:25 | 28.57023 | -89.82803 | 32968 ft | 384 kts | 170° |
| 2026-05-07 22:26 | 28.52119 | -89.80257 | 32975 ft | 409 kts | 146° |
| 2026-05-07 22:26 | 28.50317 | -89.77621 | 33009 ft | 433 kts | 124° |
| 2026-05-07 22:26 | 28.49581 | -89.70734 | 33022 ft | 458 kts | 85° |
| 2026-05-07 22:27 | 28.49867 | -89.67149 | 32955 ft | 459 kts | 90° |
| 2026-05-07 22:27 | 28.50011 | -89.59910 | 32975 ft | 451 kts | 93° |
| 2026-05-07 22:28 | 28.50028 | -89.52935 | 32967 ft | 438 kts | 94° |
| 2026-05-07 22:28 | 28.50026 | -89.45988 | 32974 ft | 441 kts | 93° |
| 2026-05-07 22:29 | 28.50024 | -89.38977 | 32971 ft | 445 kts | 94° |
| 2026-05-07 22:29 | 28.49959 | -89.31982 | 32949 ft | 439 kts | 103° |
| 2026-05-07 22:29 | 28.49080 | -89.28787 | 32999 ft | 417 kts | 128° |
| 2026-05-07 22:30 | 28.47270 | -89.26311 | 32998 ft | 395 kts | 152° |
| 2026-05-07 22:30 | 28.44930 | -89.24977 | 33007 ft | 371 kts | 176° |
| 2026-05-07 22:30 | 28.42435 | -89.24897 | 32999 ft | 345 kts | 201° |
| 2026-05-07 22:30 | 28.40364 | -89.26017 | 33005 ft | 326 kts | 226° |
| 2026-05-07 22:31 | 28.39070 | -89.28040 | 33002 ft | 320 kts | 250° |
| 2026-05-07 22:31 | 28.38818 | -89.30579 | 33002 ft | 328 kts | 275° |
| 2026-05-07 22:31 | 28.39652 | -89.33031 | 33008 ft | 343 kts | 292° |
| 2026-05-07 22:31 | 28.40693 | -89.35471 | 32948 ft | 336 kts | 281° |
| 2026-05-07 22:32 | 28.41207 | -89.38002 | 32974 ft | 330 kts | 273° |
| 2026-05-07 22:32 | 28.41582 | -89.43183 | 32958 ft | 326 kts | 268° |
| 2026-05-07 22:33 | 28.41670 | -89.48289 | 32962 ft | 324 kts | 267° |
| 2026-05-07 22:33 | 28.41690 | -89.53401 | 32959 ft | 324 kts | 266° |
| 2026-05-07 22:34 | 28.41693 | -89.58514 | 32954 ft | 324 kts | 266° |
| 2026-05-07 22:34 | 28.41691 | -89.63626 | 32958 ft | 324 kts | 266° |
| 2026-05-07 22:35 | 28.41686 | -89.68719 | 32969 ft | 325 kts | 265° |
| 2026-05-07 22:35 | 28.41678 | -89.73840 | 32964 ft | 324 kts | 265° |
| 2026-05-07 22:35 | 28.41449 | -89.76367 | 32961 ft | 318 kts | 249° |
| 2026-05-07 22:36 | 28.40237 | -89.78444 | 33018 ft | 323 kts | 224° |
| 2026-05-07 22:36 | 28.38232 | -89.79663 | 33004 ft | 341 kts | 200° |
| 2026-05-07 22:36 | 28.35788 | -89.79709 | 33008 ft | 367 kts | 176° |
| 2026-05-07 22:36 | 28.33395 | -89.78484 | 33008 ft | 395 kts | 152° |
| 2026-05-07 22:37 | 28.31504 | -89.76119 | 33011 ft | 418 kts | 127° |
| 2026-05-07 22:37 | 28.30500 | -89.72956 | 33011 ft | 436 kts | 102° |
| 2026-05-07 22:37 | 28.30598 | -89.69497 | 33004 ft | 446 kts | 78° |
| 2026-05-07 22:37 | 28.31778 | -89.66209 | 33019 ft | 448 kts | 61° |
| 2026-05-07 22:38 | 28.32840 | -89.62891 | 32967 ft | 447 kts | 82° |
| 2026-05-07 22:38 | 28.33297 | -89.55926 | 32970 ft | 444 kts | 92° |
| 2026-05-07 22:39 | 28.33354 | -89.48959 | 32970 ft | 441 kts | 93° |
| 2026-05-07 22:39 | 28.33358 | -89.42008 | 32970 ft | 441 kts | 94° |
| 2026-05-07 22:40 | 28.33352 | -89.35061 | 32975 ft | 442 kts | 94° |
| 2026-05-07 22:40 | 28.32303 | -89.28445 | 33006 ft | 416 kts | 129° |
| 2026-05-07 22:40 | 28.30442 | -89.26057 | 32998 ft | 394 kts | 154° |
| 2026-05-07 22:41 | 28.28055 | -89.24802 | 33003 ft | 368 kts | 178° |
| 2026-05-07 22:41 | 28.25569 | -89.24826 | 33001 ft | 344 kts | 203° |
| 2026-05-07 22:41 | 28.23540 | -89.26031 | 32998 ft | 327 kts | 227° |
| 2026-05-07 22:41 | 28.22301 | -89.28150 | 33001 ft | 321 kts | 252° |
| 2026-05-07 22:42 | 28.22144 | -89.30655 | 33003 ft | 329 kts | 277° |
| 2026-05-07 22:42 | 28.23033 | -89.33086 | 33006 ft | 343 kts | 292° |
| 2026-05-07 22:42 | 28.24059 | -89.35543 | 32947 ft | 337 kts | 281° |
| 2026-05-07 22:43 | 28.24800 | -89.40646 | 32963 ft | 328 kts | 270° |
| 2026-05-07 22:43 | 28.24977 | -89.45807 | 32956 ft | 326 kts | 267° |
| 2026-05-07 22:44 | 28.25018 | -89.50919 | 32959 ft | 325 kts | 267° |
| 2026-05-07 22:44 | 28.25026 | -89.56037 | 32958 ft | 325 kts | 266° |
| 2026-05-07 22:45 | 28.25026 | -89.61183 | 32954 ft | 325 kts | 266° |
| 2026-05-07 22:45 | 28.25021 | -89.66299 | 32963 ft | 325 kts | 266° |
| 2026-05-07 22:46 | 28.25014 | -89.71407 | 32970 ft | 325 kts | 266° |
| 2026-05-07 22:46 | 28.24742 | -89.76475 | 32962 ft | 320 kts | 247° |
| 2026-05-07 22:46 | 28.23476 | -89.78525 | 33010 ft | 324 kts | 223° |
| 2026-05-07 22:47 | 28.21411 | -89.79697 | 33002 ft | 343 kts | 199° |
| 2026-05-07 22:47 | 28.18940 | -89.79663 | 33012 ft | 369 kts | 174° |
| 2026-05-07 22:47 | 28.16560 | -89.78363 | 33003 ft | 397 kts | 150° |
| 2026-05-07 22:47 | 28.14716 | -89.75951 | 33003 ft | 420 kts | 126° |
| 2026-05-07 22:48 | 28.13770 | -89.72769 | 33005 ft | 437 kts | 101° |
| 2026-05-07 22:48 | 28.13931 | -89.69310 | 33007 ft | 445 kts | 76° |
| 2026-05-07 22:48 | 28.15130 | -89.66103 | 33012 ft | 445 kts | 61° |
| 2026-05-07 22:48 | 28.16174 | -89.62791 | 32976 ft | 444 kts | 82° |
| 2026-05-07 22:49 | 28.16509 | -89.59346 | 32977 ft | 444 kts | 89° |
| 2026-05-07 22:49 | 28.16673 | -89.52357 | 32968 ft | 442 kts | 92° |
| 2026-05-07 22:50 | 28.16693 | -89.45445 | 32968 ft | 440 kts | 94° |
| 2026-05-07 22:50 | 28.16689 | -89.38461 | 32968 ft | 441 kts | 93° |
| 2026-05-07 22:51 | 28.16604 | -89.31580 | 32942 ft | 435 kts | 104° |
| 2026-05-07 22:51 | 28.15654 | -89.28413 | 33005 ft | 416 kts | 129° |
| 2026-05-07 22:51 | 28.13834 | -89.26045 | 32995 ft | 393 kts | 153° |
| 2026-05-07 22:51 | 28.11449 | -89.24765 | 33005 ft | 369 kts | 177° |
| 2026-05-07 22:52 | 28.08989 | -89.24754 | 32994 ft | 345 kts | 202° |
| 2026-05-07 22:52 | 28.06905 | -89.25955 | 33000 ft | 328 kts | 227° |
| 2026-05-07 22:52 | 28.05652 | -89.28027 | 32998 ft | 324 kts | 251° |
| 2026-05-07 22:52 | 28.05448 | -89.30580 | 32997 ft | 332 kts | 276° |
| 2026-05-07 22:53 | 28.06319 | -89.33038 | 33005 ft | 345 kts | 292° |
| 2026-05-07 22:53 | 28.07877 | -89.38011 | 32972 ft | 332 kts | 274° |
| 2026-05-07 22:54 | 28.08250 | -89.43183 | 32957 ft | 328 kts | 268° |
| 2026-05-07 22:54 | 28.08337 | -89.48295 | 32957 ft | 326 kts | 267° |
| 2026-05-07 22:55 | 28.08357 | -89.53453 | 32955 ft | 328 kts | 266° |
| 2026-05-07 22:55 | 28.08359 | -89.58575 | 32954 ft | 327 kts | 266° |
| 2026-05-07 22:56 | 28.08357 | -89.63738 | 32955 ft | 326 kts | 266° |
| 2026-05-07 22:56 | 28.08351 | -89.68880 | 32964 ft | 327 kts | 266° |
| 2026-05-07 22:57 | 28.08344 | -89.74017 | 32966 ft | 326 kts | 266° |
| 2026-05-07 22:57 | 28.08053 | -89.76522 | 32960 ft | 321 kts | 247° |
| 2026-05-07 22:57 | 28.06758 | -89.78562 | 33004 ft | 326 kts | 223° |
| 2026-05-07 22:57 | 28.04699 | -89.79704 | 33006 ft | 344 kts | 198° |
| 2026-05-07 22:58 | 28.02233 | -89.79663 | 33005 ft | 369 kts | 174° |
| 2026-05-07 22:58 | 27.99855 | -89.78353 | 33004 ft | 396 kts | 149° |
| 2026-05-07 22:58 | 27.98019 | -89.75919 | 33005 ft | 420 kts | 125° |
| 2026-05-07 22:58 | 27.97098 | -89.72752 | 33003 ft | 436 kts | 101° |
| 2026-05-07 22:59 | 27.97282 | -89.69291 | 33005 ft | 444 kts | 76° |
| 2026-05-07 22:59 | 27.98504 | -89.66085 | 33012 ft | 445 kts | 62° |
| 2026-05-07 22:59 | 27.99513 | -89.62817 | 32985 ft | 443 kts | 82° |
| 2026-05-07 23:00 | 27.99964 | -89.55886 | 32970 ft | 441 kts | 92° |
| 2026-05-07 23:00 | 28.00021 | -89.48962 | 32968 ft | 440 kts | 93° |
| 2026-05-07 23:01 | 28.00025 | -89.42077 | 32970 ft | 439 kts | 93° |
| 2026-05-07 23:01 | 28.00019 | -89.35150 | 32967 ft | 440 kts | 93° |
| 2026-05-07 23:02 | 27.99064 | -89.28550 | 33002 ft | 416 kts | 127° |
| 2026-05-07 23:02 | 27.97275 | -89.26138 | 32991 ft | 395 kts | 152° |
| 2026-05-07 23:02 | 27.94914 | -89.24810 | 32998 ft | 370 kts | 176° |
| 2026-05-07 23:02 | 27.92414 | -89.24749 | 32992 ft | 347 kts | 201° |
| 2026-05-07 23:03 | 27.90313 | -89.25897 | 33000 ft | 331 kts | 225° |
| 2026-05-07 23:03 | 27.88991 | -89.27967 | 33004 ft | 326 kts | 250° |
| 2026-05-07 23:03 | 27.88723 | -89.30499 | 33004 ft | 333 kts | 274° |
| 2026-05-07 23:03 | 27.89541 | -89.32981 | 33011 ft | 345 kts | 292° |
| 2026-05-07 23:04 | 27.90618 | -89.35394 | 32959 ft | 340 kts | 283° |
| 2026-05-07 23:04 | 27.91445 | -89.40529 | 32964 ft | 330 kts | 270° |
| 2026-05-07 23:05 | 27.91639 | -89.45682 | 32957 ft | 327 kts | 268° |
| 2026-05-07 23:05 | 27.91684 | -89.50838 | 32962 ft | 328 kts | 266° |
| 2026-05-07 23:06 | 27.91693 | -89.55981 | 32957 ft | 328 kts | 266° |
| 2026-05-07 23:06 | 27.91692 | -89.61107 | 32964 ft | 327 kts | 266° |
| 2026-05-07 23:07 | 27.91688 | -89.66247 | 32966 ft | 327 kts | 266° |
| 2026-05-07 23:07 | 27.91682 | -89.71403 | 32971 ft | 328 kts | 266° |
| 2026-05-07 23:08 | 27.91391 | -89.76509 | 32965 ft | 321 kts | 247° |
| 2026-05-07 23:08 | 27.90114 | -89.78543 | 33010 ft | 327 kts | 223° |
| 2026-05-07 23:08 | 27.88025 | -89.79720 | 33009 ft | 345 kts | 199° |
| 2026-05-07 23:08 | 27.85549 | -89.79694 | 33011 ft | 370 kts | 174° |
| 2026-05-07 23:09 | 27.83177 | -89.78416 | 33005 ft | 395 kts | 149° |
| 2026-05-07 23:09 | 27.81329 | -89.76011 | 33008 ft | 418 kts | 125° |
| 2026-05-07 23:09 | 27.80393 | -89.72858 | 33011 ft | 435 kts | 100° |
| 2026-05-07 23:09 | 27.80560 | -89.69426 | 33012 ft | 444 kts | 76° |
| 2026-05-07 23:10 | 27.81778 | -89.66213 | 33017 ft | 444 kts | 61° |
| 2026-05-07 23:10 | 27.82815 | -89.62989 | 32992 ft | 443 kts | 81° |
| 2026-05-07 23:10 | 27.83167 | -89.59552 | 32980 ft | 442 kts | 89° |
| 2026-05-07 23:11 | 27.83338 | -89.52609 | 32973 ft | 439 kts | 92° |
| 2026-05-07 23:11 | 27.83358 | -89.45773 | 32972 ft | 439 kts | 93° |
| 2026-05-07 23:12 | 27.83357 | -89.38866 | 32976 ft | 438 kts | 93° |
| 2026-05-07 23:12 | 27.83320 | -89.31988 | 32951 ft | 435 kts | 99° |
| 2026-05-07 23:12 | 27.82559 | -89.28802 | 33000 ft | 418 kts | 124° |
| 2026-05-07 23:13 | 27.80836 | -89.26255 | 32995 ft | 399 kts | 149° |
| 2026-05-07 23:13 | 27.78507 | -89.24791 | 33006 ft | 374 kts | 173° |
| 2026-05-07 23:13 | 27.75998 | -89.24577 | 32997 ft | 351 kts | 198° |
| 2026-05-07 23:13 | 27.73826 | -89.25581 | 33001 ft | 333 kts | 223° |
| 2026-05-07 23:14 | 27.72382 | -89.27550 | 33001 ft | 326 kts | 247° |
| 2026-05-07 23:14 | 27.71968 | -89.30053 | 33002 ft | 330 kts | 271° |
| 2026-05-07 23:14 | 27.72668 | -89.32552 | 33005 ft | 344 kts | 292° |
| 2026-05-07 23:15 | 27.74437 | -89.37443 | 32975 ft | 334 kts | 276° |
| 2026-05-07 23:15 | 27.74893 | -89.42627 | 32964 ft | 330 kts | 269° |
| 2026-05-07 23:16 | 27.74999 | -89.47790 | 32958 ft | 328 kts | 267° |
| 2026-05-07 23:16 | 27.75022 | -89.52930 | 32964 ft | 329 kts | 266° |
| 2026-05-07 23:17 | 27.75026 | -89.58089 | 32958 ft | 328 kts | 267° |
| 2026-05-07 23:17 | 27.75024 | -89.63236 | 32961 ft | 329 kts | 267° |
| 2026-05-07 23:18 | 27.75018 | -89.68404 | 32966 ft | 329 kts | 266° |
| 2026-05-07 23:18 | 27.75012 | -89.73538 | 32976 ft | 328 kts | 266° |
| 2026-05-07 23:18 | 27.74833 | -89.76103 | 32958 ft | 324 kts | 251° |
| 2026-05-07 23:19 | 27.73708 | -89.78248 | 33010 ft | 326 kts | 227° |
| 2026-05-07 23:19 | 27.71713 | -89.79604 | 33006 ft | 343 kts | 202° |
| 2026-05-07 23:19 | 27.69292 | -89.79793 | 33012 ft | 367 kts | 178° |
| 2026-05-07 23:19 | 27.66816 | -89.78700 | 33002 ft | 393 kts | 153° |
| 2026-05-07 23:20 | 27.64860 | -89.76480 | 33005 ft | 415 kts | 129° |
| 2026-05-07 23:20 | 27.63747 | -89.73419 | 33009 ft | 432 kts | 104° |
| 2026-05-07 23:20 | 27.63724 | -89.70002 | 33005 ft | 441 kts | 80° |
| 2026-05-07 23:20 | 27.64798 | -89.66769 | 33021 ft | 442 kts | 60° |
| 2026-05-07 23:21 | 27.66005 | -89.63591 | 32961 ft | 443 kts | 78° |
| 2026-05-07 23:21 | 27.66607 | -89.56734 | 32975 ft | 440 kts | 91° |
| 2026-05-07 23:22 | 27.66686 | -89.49847 | 32971 ft | 437 kts | 92° |
| 2026-05-07 23:22 | 27.66691 | -89.43024 | 32973 ft | 438 kts | 93° |
| 2026-05-07 23:23 | 27.66686 | -89.36140 | 32977 ft | 438 kts | 93° |
| 2026-05-07 23:23 | 27.66131 | -89.29423 | 32978 ft | 422 kts | 119° |
| 2026-05-07 23:23 | 27.64605 | -89.26746 | 33001 ft | 403 kts | 143° |
| 2026-05-07 23:24 | 27.62331 | -89.25012 | 33002 ft | 380 kts | 168° |
| 2026-05-07 23:24 | 27.59824 | -89.24541 | 33000 ft | 357 kts | 193° |
| 2026-05-07 23:24 | 27.57526 | -89.25312 | 33001 ft | 338 kts | 217° |
| 2026-05-07 23:24 | 27.55895 | -89.27097 | 33000 ft | 328 kts | 242° |
| 2026-05-07 23:25 | 27.55230 | -89.29533 | 32997 ft | 329 kts | 266° |
| 2026-05-07 23:25 | 27.55697 | -89.32086 | 33001 ft | 342 kts | 290° |
| 2026-05-07 23:25 | 27.56849 | -89.34455 | 32970 ft | 345 kts | 290° |
| 2026-05-07 23:25 | 27.57646 | -89.36968 | 32973 ft | 335 kts | 278° |
| 2026-05-07 23:26 | 27.58013 | -89.39527 | 32963 ft | 333 kts | 272° |
| 2026-05-07 23:26 | 27.58284 | -89.44718 | 32960 ft | 330 kts | 268° |
| 2026-05-07 23:27 | 27.58355 | -89.52477 | 32962 ft | 330 kts | 267° |
| 2026-05-07 23:27 | 27.58359 | -89.57619 | 32962 ft | 330 kts | 267° |
| 2026-05-07 23:28 | 27.58357 | -89.62804 | 32957 ft | 330 kts | 267° |
| 2026-05-07 23:28 | 27.58353 | -89.67941 | 32969 ft | 329 kts | 266° |
| 2026-05-07 23:29 | 27.58345 | -89.73106 | 32969 ft | 329 kts | 266° |
| 2026-05-07 23:29 | 27.57277 | -89.77950 | 33015 ft | 326 kts | 231° |
| 2026-05-07 23:30 | 27.55446 | -89.79444 | 32999 ft | 340 kts | 207° |
| 2026-05-07 23:30 | 27.53029 | -89.79859 | 33007 ft | 363 kts | 182° |
| 2026-05-07 23:30 | 27.50535 | -89.79000 | 33008 ft | 389 kts | 158° |
| 2026-05-07 23:30 | 27.48453 | -89.76970 | 33000 ft | 411 kts | 133° |
| 2026-05-07 23:31 | 27.47154 | -89.74012 | 33005 ft | 429 kts | 109° |
| 2026-05-07 23:31 | 27.46931 | -89.70646 | 33007 ft | 440 kts | 84° |
| 2026-05-07 23:31 | 27.47822 | -89.67371 | 33010 ft | 442 kts | 62° |
| 2026-05-07 23:31 | 27.49162 | -89.64229 | 32953 ft | 443 kts | 74° |
| 2026-05-07 23:32 | 27.49725 | -89.60858 | 33010 ft | 439 kts | 86° |
| 2026-05-07 23:32 | 27.49920 | -89.57418 | 32969 ft | 439 kts | 91° |
| 2026-05-07 23:32 | 27.50015 | -89.50592 | 32972 ft | 438 kts | 92° |
| 2026-05-07 23:33 | 27.50025 | -89.43713 | 32972 ft | 437 kts | 93° |
| 2026-05-07 23:33 | 27.50020 | -89.36884 | 32973 ft | 436 kts | 93° |
| 2026-05-07 23:34 | 27.49705 | -89.30142 | 32960 ft | 426 kts | 113° |
| 2026-05-07 23:34 | 27.48374 | -89.27235 | 33000 ft | 409 kts | 137° |
| 2026-05-07 23:34 | 27.46268 | -89.25254 | 33001 ft | 387 kts | 161° |
| 2026-05-07 23:35 | 27.43751 | -89.24455 | 32998 ft | 363 kts | 186° |
| 2026-05-07 23:35 | 27.41358 | -89.24927 | 33001 ft | 342 kts | 211° |
| 2026-05-07 23:35 | 27.39521 | -89.26492 | 32998 ft | 330 kts | 236° |
| 2026-05-07 23:35 | 27.38587 | -89.28817 | 32999 ft | 328 kts | 260° |
| 2026-05-07 23:36 | 27.38760 | -89.31367 | 32997 ft | 339 kts | 284° |
| 2026-05-07 23:36 | 27.39850 | -89.33778 | 32993 ft | 347 kts | 293° |
| 2026-05-07 23:36 | 27.40811 | -89.36238 | 32964 ft | 338 kts | 281° |
| 2026-05-07 23:36 | 27.41270 | -89.38808 | 32965 ft | 333 kts | 273° |
| 2026-05-07 23:37 | 27.41598 | -89.43971 | 32963 ft | 331 kts | 269° |
| 2026-05-07 23:37 | 27.41674 | -89.49133 | 32958 ft | 330 kts | 268° |
| 2026-05-07 23:38 | 27.41691 | -89.54290 | 32958 ft | 331 kts | 267° |
| 2026-05-07 23:38 | 27.41692 | -89.59454 | 32959 ft | 331 kts | 267° |
| 2026-05-07 23:39 | 27.41690 | -89.64601 | 32955 ft | 330 kts | 267° |
| 2026-05-07 23:39 | 27.41683 | -89.69762 | 32968 ft | 330 kts | 266° |
| 2026-05-07 23:40 | 27.41664 | -89.74932 | 32963 ft | 329 kts | 263° |
| 2026-05-07 23:40 | 27.40998 | -89.77341 | 32997 ft | 325 kts | 238° |
| 2026-05-07 23:40 | 27.39359 | -89.79117 | 33001 ft | 337 kts | 214° |
| 2026-05-07 23:41 | 27.37065 | -89.79878 | 33004 ft | 357 kts | 189° |
| 2026-05-07 23:41 | 27.34561 | -89.79407 | 33004 ft | 382 kts | 165° |
| 2026-05-07 23:41 | 27.32297 | -89.77705 | 33002 ft | 406 kts | 140° |
| 2026-05-07 23:41 | 27.30717 | -89.74983 | 33002 ft | 424 kts | 116° |
| 2026-05-07 23:42 | 27.30157 | -89.71709 | 33001 ft | 436 kts | 91° |
| 2026-05-07 23:42 | 27.30713 | -89.68389 | 33009 ft | 441 kts | 67° |
| 2026-05-07 23:42 | 27.32927 | -89.61981 | 33004 ft | 440 kts | 84° |
| 2026-05-07 23:43 | 27.33307 | -89.55134 | 32969 ft | 437 kts | 92° |
| 2026-05-07 23:43 | 27.33354 | -89.48328 | 32971 ft | 436 kts | 92° |
| 2026-05-07 23:44 | 27.33357 | -89.41532 | 32972 ft | 437 kts | 93° |
| 2026-05-07 23:44 | 27.34248 | -89.34840 | 33009 ft | 438 kts | 60° |
| 2026-05-07 23:45 | 27.36072 | -89.32172 | 32995 ft | 434 kts | 36° |
| 2026-05-07 23:45 | 27.38619 | -89.30466 | 32999 ft | 419 kts | 12° |
| 2026-05-07 23:45 | 27.41447 | -89.29997 | 33001 ft | 398 kts | 347° |
| 2026-05-07 23:45 | 27.44064 | -89.30723 | 33009 ft | 381 kts | 329° |
| 2026-05-07 23:46 | 27.48756 | -89.33299 | 32961 ft | 374 kts | 323° |
| 2026-05-07 23:46 | 27.53304 | -89.36140 | 32959 ft | 372 kts | 322° |
| 2026-05-07 23:47 | 27.57824 | -89.39030 | 32962 ft | 371 kts | 322° |
| 2026-05-07 23:47 | 27.62292 | -89.41903 | 32965 ft | 372 kts | 322° |
| 2026-05-07 23:48 | 27.66812 | -89.44812 | 32964 ft | 372 kts | 321° |
| 2026-05-07 23:48 | 27.71287 | -89.47695 | 32962 ft | 371 kts | 321° |
| 2026-05-07 23:49 | 27.75807 | -89.50612 | 32961 ft | 372 kts | 321° |
| 2026-05-07 23:49 | 27.80312 | -89.53520 | 32958 ft | 372 kts | 321° |
| 2026-05-07 23:50 | 27.84811 | -89.56428 | 32961 ft | 372 kts | 321° |
| 2026-05-07 23:50 | 27.89315 | -89.59341 | 32964 ft | 372 kts | 321° |
| 2026-05-07 23:51 | 27.93806 | -89.62249 | 32959 ft | 372 kts | 321° |
| 2026-05-07 23:51 | 27.98310 | -89.65170 | 32962 ft | 372 kts | 321° |
| 2026-05-07 23:52 | 28.02784 | -89.68072 | 32970 ft | 371 kts | 321° |
| 2026-05-07 23:52 | 28.07287 | -89.70996 | 32975 ft | 372 kts | 321° |
| 2026-05-07 23:53 | 28.11790 | -89.73924 | 32964 ft | 372 kts | 321° |
| 2026-05-07 23:53 | 28.16287 | -89.76850 | 32963 ft | 371 kts | 320° |
| 2026-05-07 23:54 | 28.20738 | -89.79748 | 32966 ft | 371 kts | 320° |
| 2026-05-07 23:54 | 28.25240 | -89.82686 | 32970 ft | 373 kts | 321° |
| 2026-05-07 23:55 | 28.29734 | -89.85616 | 32963 ft | 372 kts | 320° |
| 2026-05-07 23:55 | 28.34210 | -89.88541 | 32970 ft | 371 kts | 320° |
| 2026-05-07 23:56 | 28.38703 | -89.91479 | 32963 ft | 371 kts | 320° |
| 2026-05-07 23:56 | 28.42825 | -89.94794 | 32977 ft | 347 kts | 295° |
| 2026-05-07 23:57 | 28.43710 | -89.97231 | 33002 ft | 327 kts | 271° |
| 2026-05-07 23:57 | 28.43466 | -89.99721 | 33005 ft | 319 kts | 247° |
| 2026-05-07 23:57 | 28.42179 | -90.01749 | 33001 ft | 326 kts | 223° |
| 2026-05-07 23:57 | 28.40098 | -90.02872 | 33001 ft | 344 kts | 198° |
| 2026-05-07 23:58 | 28.37643 | -90.02791 | 32997 ft | 368 kts | 173° |
| 2026-05-07 23:58 | 28.35219 | -90.01533 | 33014 ft | 384 kts | 160° |
| 2026-05-07 23:58 | 28.30398 | -89.99442 | 32987 ft | 361 kts | 180° |
| 2026-05-07 23:59 | 28.25418 | -89.99000 | 32968 ft | 356 kts | 187° |
| 2026-05-07 23:59 | 28.20468 | -89.98910 | 32967 ft | 354 kts | 188° |
| 2026-05-08 00:00 | 28.15854 | -89.99916 | 33003 ft | 327 kts | 222° |
| 2026-05-08 00:00 | 28.14394 | -90.01852 | 32999 ft | 321 kts | 244° |
| 2026-05-08 00:00 | 28.13871 | -90.04293 | 32990 ft | 327 kts | 268° |
| 2026-05-08 00:01 | 28.14450 | -90.06812 | 32998 ft | 343 kts | 292° |
| 2026-05-08 00:01 | 28.16083 | -90.08875 | 32996 ft | 366 kts | 316° |
| 2026-05-08 00:01 | 28.18515 | -90.10027 | 33002 ft | 394 kts | 341° |
| 2026-05-08 00:01 | 28.21331 | -90.09980 | 32994 ft | 418 kts | 6° |
| 2026-05-08 00:02 | 28.27037 | -90.08634 | 32975 ft | 412 kts | 356° |
| 2026-05-08 00:02 | 28.32725 | -90.08401 | 32959 ft | 406 kts | 352° |
| 2026-05-08 00:03 | 28.38390 | -90.08366 | 32961 ft | 405 kts | 351° |
| 2026-05-08 00:03 | 28.44020 | -90.08473 | 32945 ft | 397 kts | 340° |
| 2026-05-08 00:04 | 28.46470 | -90.09555 | 33009 ft | 367 kts | 315° |
| 2026-05-08 00:04 | 28.48165 | -90.11558 | 32990 ft | 342 kts | 292° |
| 2026-05-08 00:04 | 28.48994 | -90.13998 | 32972 ft | 326 kts | 270° |
| 2026-05-08 00:04 | 28.48704 | -90.16487 | 33004 ft | 319 kts | 245° |
| 2026-05-08 00:05 | 28.47377 | -90.18483 | 32999 ft | 325 kts | 221° |
| 2026-05-08 00:05 | 28.45265 | -90.19552 | 33001 ft | 343 kts | 197° |
| 2026-05-08 00:05 | 28.42834 | -90.19403 | 32992 ft | 368 kts | 173° |
| 2026-05-08 00:05 | 28.40368 | -90.18563 | 32977 ft | 365 kts | 178° |
| 2026-05-08 00:06 | 28.35371 | -90.17979 | 32959 ft | 356 kts | 187° |
| 2026-05-08 00:06 | 28.30449 | -90.17862 | 32964 ft | 355 kts | 188° |
| 2026-05-08 00:07 | 28.25495 | -90.17838 | 32961 ft | 353 kts | 188° |
| 2026-05-08 00:07 | 28.20565 | -90.17834 | 32959 ft | 355 kts | 188° |
| 2026-05-08 00:08 | 28.15935 | -90.18827 | 32998 ft | 327 kts | 221° |
| 2026-05-08 00:08 | 28.14477 | -90.20720 | 32999 ft | 321 kts | 244° |
| 2026-05-08 00:08 | 28.13901 | -90.23149 | 32982 ft | 326 kts | 266° |
| 2026-05-08 00:09 | 28.14422 | -90.25684 | 32996 ft | 342 kts | 291° |
| 2026-05-08 00:09 | 28.16023 | -90.27802 | 32993 ft | 367 kts | 315° |
| 2026-05-08 00:09 | 28.18391 | -90.29005 | 32993 ft | 392 kts | 340° |
| 2026-05-08 00:09 | 28.21225 | -90.29031 | 32990 ft | 416 kts | 5° |
| 2026-05-08 00:10 | 28.26914 | -90.27608 | 32971 ft | 414 kts | 356° |
| 2026-05-08 00:10 | 28.32640 | -90.27351 | 32957 ft | 408 kts | 352° |
| 2026-05-08 00:11 | 28.38293 | -90.27312 | 32961 ft | 407 kts | 351° |
| 2026-05-08 00:11 | 28.43947 | -90.27395 | 32944 ft | 397 kts | 341° |
| 2026-05-08 00:12 | 28.46428 | -90.28432 | 33002 ft | 367 kts | 316° |
| 2026-05-08 00:12 | 28.48145 | -90.30393 | 33001 ft | 345 kts | 293° |
| 2026-05-08 00:12 | 28.49013 | -90.32842 | 32965 ft | 328 kts | 271° |
| 2026-05-08 00:12 | 28.48760 | -90.35326 | 32999 ft | 317 kts | 247° |
| 2026-05-08 00:13 | 28.47451 | -90.37352 | 32998 ft | 323 kts | 222° |
| 2026-05-08 00:13 | 28.45349 | -90.38440 | 32996 ft | 343 kts | 197° |
| 2026-05-08 00:13 | 28.42927 | -90.38316 | 32993 ft | 368 kts | 174° |
| 2026-05-08 00:13 | 28.40431 | -90.37489 | 32978 ft | 366 kts | 178° |
| 2026-05-08 00:14 | 28.35442 | -90.36920 | 32961 ft | 357 kts | 187° |
| 2026-05-08 00:14 | 28.30515 | -90.36805 | 32961 ft | 353 kts | 188° |
| 2026-05-08 00:15 | 28.25605 | -90.36784 | 32962 ft | 353 kts | 189° |
| 2026-05-08 00:15 | 28.20649 | -90.36778 | 32956 ft | 355 kts | 189° |
| 2026-05-08 00:16 | 28.15992 | -90.37717 | 32996 ft | 328 kts | 220° |
| 2026-05-08 00:16 | 28.14497 | -90.39589 | 32993 ft | 320 kts | 243° |
| 2026-05-08 00:16 | 28.13895 | -90.41987 | 32984 ft | 326 kts | 265° |
| 2026-05-08 00:17 | 28.14381 | -90.44543 | 32995 ft | 342 kts | 290° |
| 2026-05-08 00:17 | 28.15929 | -90.46667 | 32994 ft | 366 kts | 315° |
| 2026-05-08 00:17 | 28.18280 | -90.47920 | 32987 ft | 391 kts | 339° |
| 2026-05-08 00:17 | 28.21079 | -90.48000 | 32997 ft | 416 kts | 4° |
| 2026-05-08 00:18 | 28.26775 | -90.46565 | 32965 ft | 413 kts | 357° |
| 2026-05-08 00:18 | 28.32471 | -90.46297 | 32953 ft | 407 kts | 352° |
| 2026-05-08 00:19 | 28.38136 | -90.46256 | 32956 ft | 405 kts | 352° |
| 2026-05-08 00:19 | 28.43808 | -90.46326 | 32947 ft | 398 kts | 342° |
| 2026-05-08 00:20 | 28.46281 | -90.47306 | 32999 ft | 370 kts | 318° |
| 2026-05-08 00:20 | 28.48069 | -90.49269 | 32990 ft | 344 kts | 294° |
| 2026-05-08 00:20 | 28.48970 | -90.51691 | 32972 ft | 328 kts | 272° |
| 2026-05-08 00:20 | 28.48772 | -90.54188 | 32998 ft | 318 kts | 248° |
| 2026-05-08 00:21 | 28.47525 | -90.56238 | 32990 ft | 322 kts | 223° |
| 2026-05-08 00:21 | 28.45485 | -90.57374 | 32990 ft | 340 kts | 199° |
| 2026-05-08 00:21 | 28.43049 | -90.57313 | 32992 ft | 366 kts | 174° |
| 2026-05-08 00:21 | 28.40590 | -90.56483 | 32974 ft | 366 kts | 177° |
| 2026-05-08 00:22 | 28.35574 | -90.55873 | 32954 ft | 357 kts | 187° |
| 2026-05-08 00:22 | 28.30625 | -90.55752 | 32957 ft | 354 kts | 188° |
| 2026-05-08 00:23 | 28.25688 | -90.55727 | 32954 ft | 353 kts | 189° |
| 2026-05-08 00:23 | 28.20756 | -90.55724 | 32961 ft | 354 kts | 188° |
| 2026-05-08 00:24 | 28.16104 | -90.56561 | 32981 ft | 328 kts | 219° |
| 2026-05-08 00:24 | 28.14553 | -90.58392 | 32990 ft | 322 kts | 242° |
| 2026-05-08 00:24 | 28.13892 | -90.60818 | 32987 ft | 329 kts | 265° |
| 2026-05-08 00:25 | 28.14331 | -90.63384 | 32988 ft | 344 kts | 289° |
| 2026-05-08 00:25 | 28.15839 | -90.65552 | 32993 ft | 365 kts | 313° |
| 2026-05-08 00:25 | 28.18183 | -90.66863 | 33003 ft | 391 kts | 338° |
| 2026-05-08 00:25 | 28.20966 | -90.67005 | 33002 ft | 415 kts | 2° |
| 2026-05-08 00:26 | 28.26630 | -90.65536 | 32976 ft | 411 kts | 357° |
| 2026-05-08 00:26 | 28.32348 | -90.65247 | 32971 ft | 409 kts | 352° |
| 2026-05-08 00:27 | 28.38041 | -90.65200 | 32968 ft | 404 kts | 351° |
| 2026-05-08 00:27 | 28.43635 | -90.65241 | 32960 ft | 398 kts | 343° |
| 2026-05-08 00:28 | 28.46179 | -90.66145 | 33007 ft | 371 kts | 319° |
| 2026-05-08 00:28 | 28.48005 | -90.68032 | 32999 ft | 346 kts | 295° |
| 2026-05-08 00:28 | 28.48974 | -90.70456 | 32987 ft | 329 kts | 274° |
| 2026-05-08 00:28 | 28.48837 | -90.72982 | 33008 ft | 318 kts | 249° |
| 2026-05-08 00:29 | 28.47634 | -90.75075 | 33005 ft | 323 kts | 224° |
| 2026-05-08 00:29 | 28.45642 | -90.76277 | 33002 ft | 341 kts | 200° |
| 2026-05-08 00:29 | 28.43176 | -90.76311 | 33001 ft | 366 kts | 176° |
| 2026-05-08 00:29 | 28.40698 | -90.75472 | 32994 ft | 369 kts | 176° |
| 2026-05-08 00:30 | 28.35705 | -90.74827 | 32964 ft | 356 kts | 186° |
| 2026-05-08 00:30 | 28.30765 | -90.74699 | 32970 ft | 353 kts | 188° |
| 2026-05-08 00:31 | 28.25864 | -90.74673 | 32965 ft | 353 kts | 188° |
| 2026-05-08 00:31 | 28.20893 | -90.74668 | 32966 ft | 356 kts | 188° |
| 2026-05-08 00:32 | 28.16186 | -90.75487 | 32999 ft | 330 kts | 218° |
| 2026-05-08 00:32 | 28.14613 | -90.77300 | 32990 ft | 323 kts | 241° |
| 2026-05-08 00:32 | 28.13920 | -90.79684 | 32993 ft | 326 kts | 263° |
| 2026-05-08 00:33 | 28.14310 | -90.82247 | 33003 ft | 341 kts | 288° |
| 2026-05-08 00:33 | 28.15785 | -90.84436 | 32998 ft | 364 kts | 313° |
| 2026-05-08 00:33 | 28.18116 | -90.85781 | 32996 ft | 389 kts | 337° |
| 2026-05-08 00:33 | 28.20881 | -90.85947 | 33004 ft | 412 kts | 1° |
| 2026-05-08 00:34 | 28.26530 | -90.84486 | 32980 ft | 412 kts | 357° |
| 2026-05-08 00:34 | 28.32237 | -90.84192 | 32965 ft | 408 kts | 352° |
| 2026-05-08 00:35 | 28.37924 | -90.84145 | 32969 ft | 406 kts | 351° |
| 2026-05-08 00:35 | 28.43569 | -90.84189 | 32960 ft | 400 kts | 343° |
| 2026-05-08 00:36 | 28.46115 | -90.85104 | 33003 ft | 371 kts | 319° |
| 2026-05-08 00:36 | 28.47936 | -90.86994 | 32998 ft | 347 kts | 295° |
| 2026-05-08 00:36 | 28.48919 | -90.89410 | 32976 ft | 330 kts | 275° |
| 2026-05-08 00:36 | 28.48813 | -90.91927 | 33006 ft | 318 kts | 250° |
| 2026-05-08 00:37 | 28.47641 | -90.94038 | 32996 ft | 323 kts | 225° |
| 2026-05-08 00:37 | 28.45647 | -90.95275 | 33000 ft | 341 kts | 201° |
| 2026-05-08 00:37 | 28.43189 | -90.95340 | 33002 ft | 367 kts | 176° |
| 2026-05-08 00:38 | 28.38202 | -90.93996 | 32971 ft | 360 kts | 183° |
| 2026-05-08 00:38 | 28.33232 | -90.93688 | 32967 ft | 356 kts | 187° |
| 2026-05-08 00:39 | 28.28294 | -90.93626 | 32969 ft | 354 kts | 188° |
| 2026-05-08 00:39 | 28.23341 | -90.93614 | 32963 ft | 354 kts | 188° |
| 2026-05-08 00:40 | 28.18399 | -90.93632 | 32952 ft | 350 kts | 193° |
| 2026-05-08 00:40 | 28.16157 | -90.94412 | 32995 ft | 330 kts | 218° |
| 2026-05-08 00:40 | 28.14577 | -90.96210 | 33002 ft | 324 kts | 240° |
| 2026-05-08 00:40 | 28.13881 | -90.98625 | 32994 ft | 328 kts | 264° |
| 2026-05-08 00:41 | 28.14288 | -91.01175 | 32998 ft | 342 kts | 288° |
| 2026-05-08 00:41 | 28.15789 | -91.03372 | 33001 ft | 364 kts | 313° |
| 2026-05-08 00:41 | 28.18097 | -91.04692 | 32998 ft | 390 kts | 337° |
| 2026-05-08 00:41 | 28.20877 | -91.04864 | 32999 ft | 415 kts | 1° |
| 2026-05-08 00:42 | 28.23703 | -91.03969 | 33003 ft | 422 kts | 8° |
| 2026-05-08 00:42 | 28.26577 | -91.03417 | 32978 ft | 412 kts | 357° |
| 2026-05-08 00:42 | 28.29460 | -91.03213 | 32960 ft | 409 kts | 354° |
| 2026-05-08 00:43 | 28.35105 | -91.03102 | 32961 ft | 406 kts | 352° |
| 2026-05-08 00:43 | 28.40744 | -91.03085 | 32966 ft | 406 kts | 351° |
| 2026-05-08 00:44 | 28.46128 | -91.04026 | 32992 ft | 371 kts | 319° |
| 2026-05-08 00:44 | 28.47966 | -91.05922 | 33001 ft | 346 kts | 295° |
| 2026-05-08 00:44 | 28.48939 | -91.08310 | 32972 ft | 329 kts | 275° |
| 2026-05-08 00:44 | 28.48830 | -91.10823 | 32994 ft | 318 kts | 250° |
| 2026-05-08 00:45 | 28.47657 | -91.12920 | 33001 ft | 323 kts | 225° |
| 2026-05-08 00:45 | 28.45639 | -91.14160 | 32998 ft | 340 kts | 201° |
| 2026-05-08 00:45 | 28.43215 | -91.14204 | 32994 ft | 365 kts | 176° |
| 2026-05-08 00:46 | 28.38218 | -91.12919 | 32973 ft | 360 kts | 184° |
| 2026-05-08 00:46 | 28.33242 | -91.12627 | 32962 ft | 355 kts | 187° |
| 2026-05-08 00:47 | 28.28300 | -91.12569 | 32960 ft | 354 kts | 188° |
| 2026-05-08 00:47 | 28.23368 | -91.12558 | 32963 ft | 354 kts | 188° |
| 2026-05-08 00:48 | 28.18406 | -91.12579 | 32954 ft | 351 kts | 193° |
| 2026-05-08 00:48 | 28.16162 | -91.13374 | 32997 ft | 331 kts | 218° |
| 2026-05-08 00:48 | 28.14586 | -91.15179 | 32981 ft | 323 kts | 240° |
| 2026-05-08 00:48 | 28.13896 | -91.17572 | 32996 ft | 328 kts | 264° |
| 2026-05-08 00:49 | 28.14287 | -91.20123 | 32996 ft | 343 kts | 288° |
| 2026-05-08 00:49 | 28.15760 | -91.22328 | 32991 ft | 365 kts | 313° |
| 2026-05-08 00:49 | 28.18080 | -91.23682 | 32994 ft | 389 kts | 336° |
| 2026-05-08 00:49 | 28.20864 | -91.23862 | 32994 ft | 413 kts | 1° |
| 2026-05-08 00:50 | 28.23661 | -91.22958 | 33008 ft | 421 kts | 9° |
| 2026-05-08 00:50 | 28.26499 | -91.22380 | 32971 ft | 411 kts | 357° |
| 2026-05-08 00:50 | 28.29382 | -91.22165 | 32959 ft | 409 kts | 354° |
| 2026-05-08 00:51 | 28.35031 | -91.22047 | 32965 ft | 406 kts | 351° |
| 2026-05-08 00:51 | 28.40709 | -91.22030 | 32965 ft | 406 kts | 351° |
| 2026-05-08 00:52 | 28.46072 | -91.22927 | 32988 ft | 371 kts | 320° |
| 2026-05-08 00:52 | 28.47936 | -91.24796 | 33000 ft | 346 kts | 295° |
| 2026-05-08 00:52 | 28.48940 | -91.27202 | 32962 ft | 329 kts | 275° |
| 2026-05-08 00:52 | 28.48845 | -91.29717 | 32998 ft | 318 kts | 250° |
| 2026-05-08 00:53 | 28.47702 | -91.31808 | 32993 ft | 322 kts | 226° |
| 2026-05-08 00:53 | 28.45707 | -91.33067 | 32996 ft | 339 kts | 201° |
| 2026-05-08 00:53 | 28.43255 | -91.33137 | 32996 ft | 365 kts | 177° |
| 2026-05-08 00:54 | 28.38254 | -91.31864 | 32966 ft | 361 kts | 184° |
| 2026-05-08 00:54 | 28.33307 | -91.31572 | 32960 ft | 354 kts | 188° |
| 2026-05-08 00:55 | 28.28362 | -91.31514 | 32956 ft | 353 kts | 188° |
| 2026-05-08 00:55 | 28.23411 | -91.31504 | 32961 ft | 356 kts | 188° |
| 2026-05-08 00:55 | 28.21014 | -91.31824 | 32952 ft | 338 kts | 207° |
| 2026-05-08 00:56 | 28.19107 | -91.33237 | 32994 ft | 323 kts | 232° |
| 2026-05-08 00:56 | 28.18078 | -91.35452 | 32999 ft | 323 kts | 256° |
| 2026-05-08 00:56 | 28.18131 | -91.38002 | 32996 ft | 335 kts | 281° |
| 2026-05-08 00:56 | 28.19280 | -91.40324 | 32992 ft | 355 kts | 305° |
| 2026-05-08 00:57 | 28.21367 | -91.41955 | 32989 ft | 380 kts | 329° |
| 2026-05-08 00:57 | 28.24075 | -91.42503 | 32990 ft | 405 kts | 353° |
| 2026-05-08 00:57 | 28.26922 | -91.42245 | 32978 ft | 413 kts | 358° |
| 2026-05-08 00:58 | 28.32546 | -91.42177 | 32974 ft | 392 kts | 338° |
| 2026-05-08 00:58 | 28.37629 | -91.44132 | 32955 ft | 381 kts | 328° |
| 2026-05-08 00:59 | 28.42472 | -91.46514 | 32961 ft | 379 kts | 326° |
| 2026-05-08 00:59 | 28.47234 | -91.49062 | 32943 ft | 365 kts | 315° |
| 2026-05-08 00:59 | 28.48880 | -91.51061 | 33001 ft | 339 kts | 290° |
| 2026-05-08 01:00 | 28.49595 | -91.53555 | 32987 ft | 327 kts | 272° |
| 2026-05-08 01:00 | 28.49918 | -91.58666 | 32956 ft | 324 kts | 268° |
| 2026-05-08 01:01 | 28.49999 | -91.63741 | 32958 ft | 321 kts | 267° |
| 2026-05-08 01:01 | 28.50021 | -91.68818 | 32970 ft | 321 kts | 266° |
| 2026-05-08 01:02 | 28.50027 | -91.73887 | 32971 ft | 320 kts | 266° |
| 2026-05-08 01:02 | 28.50029 | -91.78917 | 32968 ft | 320 kts | 266° |
| 2026-05-08 01:03 | 28.50027 | -91.84002 | 32969 ft | 321 kts | 266° |
| 2026-05-08 01:03 | 28.50026 | -91.89067 | 32966 ft | 320 kts | 266° |
| 2026-05-08 01:04 | 28.50021 | -91.94170 | 32970 ft | 321 kts | 266° |
| 2026-05-08 01:04 | 28.50014 | -91.99226 | 32964 ft | 320 kts | 265° |
| 2026-05-08 01:05 | 28.49536 | -92.04167 | 32975 ft | 315 kts | 242° |
| 2026-05-08 01:05 | 28.48071 | -92.06011 | 32997 ft | 325 kts | 218° |
| 2026-05-08 01:05 | 28.45906 | -92.06895 | 32995 ft | 346 kts | 193° |
| 2026-05-08 01:05 | 28.43411 | -92.06537 | 33002 ft | 374 kts | 169° |
| 2026-05-08 01:06 | 28.41142 | -92.04930 | 32997 ft | 402 kts | 144° |
| 2026-05-08 01:06 | 28.39504 | -92.02277 | 33002 ft | 426 kts | 120° |
| 2026-05-08 01:06 | 28.38821 | -91.98943 | 32997 ft | 443 kts | 96° |
| 2026-05-08 01:06 | 28.39265 | -91.95470 | 32998 ft | 450 kts | 70° |
| 2026-05-08 01:07 | 28.40586 | -91.92279 | 32989 ft | 451 kts | 67° |
| 2026-05-08 01:07 | 28.41350 | -91.88834 | 33009 ft | 446 kts | 86° |
| 2026-05-08 01:07 | 28.41574 | -91.85303 | 32961 ft | 447 kts | 91° |
| 2026-05-08 01:08 | 28.41683 | -91.78289 | 32970 ft | 444 kts | 94° |
| 2026-05-08 01:08 | 28.41692 | -91.71313 | 32968 ft | 443 kts | 94° |
| 2026-05-08 01:09 | 28.41689 | -91.64291 | 32970 ft | 443 kts | 94° |
| 2026-05-08 01:09 | 28.41348 | -91.57394 | 32972 ft | 430 kts | 114° |
| 2026-05-08 01:09 | 28.39995 | -91.54460 | 33002 ft | 409 kts | 138° |
| 2026-05-08 01:10 | 28.37881 | -91.52480 | 33006 ft | 384 kts | 163° |
| 2026-05-08 01:10 | 28.35432 | -91.51711 | 33007 ft | 357 kts | 187° |
| 2026-05-08 01:10 | 28.33071 | -91.52205 | 33002 ft | 334 kts | 212° |
| 2026-05-08 01:10 | 28.31309 | -91.53793 | 32998 ft | 321 kts | 236° |
| 2026-05-08 01:11 | 28.30477 | -91.56126 | 33007 ft | 322 kts | 261° |
| 2026-05-08 01:11 | 28.30771 | -91.58675 | 33006 ft | 335 kts | 285° |
| 2026-05-08 01:11 | 28.31860 | -91.61030 | 32985 ft | 340 kts | 289° |
| 2026-05-08 01:11 | 28.32646 | -91.63524 | 32981 ft | 330 kts | 276° |
| 2026-05-08 01:12 | 28.33010 | -91.66075 | 32971 ft | 327 kts | 271° |
| 2026-05-08 01:12 | 28.33281 | -91.71193 | 32966 ft | 324 kts | 266° |
| 2026-05-08 01:13 | 28.33345 | -91.76279 | 32970 ft | 324 kts | 266° |
| 2026-05-08 01:13 | 28.33359 | -91.81399 | 32966 ft | 322 kts | 265° |
| 2026-05-08 01:14 | 28.33360 | -91.86481 | 32967 ft | 322 kts | 265° |
| 2026-05-08 01:14 | 28.33356 | -91.91569 | 32967 ft | 323 kts | 266° |
| 2026-05-08 01:15 | 28.33351 | -91.96660 | 32965 ft | 324 kts | 266° |
| 2026-05-08 01:15 | 28.33341 | -92.01763 | 32960 ft | 322 kts | 265° |
| 2026-05-08 01:15 | 28.32849 | -92.04171 | 32978 ft | 315 kts | 242° |
| 2026-05-08 01:16 | 28.31373 | -92.05997 | 32996 ft | 326 kts | 218° |
| 2026-05-08 01:16 | 28.29172 | -92.06870 | 32995 ft | 347 kts | 193° |
| 2026-05-08 01:16 | 28.26709 | -92.06503 | 33001 ft | 375 kts | 168° |
| 2026-05-08 01:16 | 28.24409 | -92.04864 | 32995 ft | 403 kts | 144° |
| 2026-05-08 01:17 | 28.22780 | -92.02187 | 32989 ft | 426 kts | 119° |
| 2026-05-08 01:17 | 28.22129 | -91.98858 | 32997 ft | 442 kts | 95° |
| 2026-05-08 01:17 | 28.22601 | -91.95405 | 32994 ft | 449 kts | 70° |
| 2026-05-08 01:18 | 28.24680 | -91.88792 | 33007 ft | 445 kts | 86° |
| 2026-05-08 01:18 | 28.24986 | -91.81797 | 32964 ft | 444 kts | 92° |
| 2026-05-08 01:19 | 28.25024 | -91.74812 | 32965 ft | 441 kts | 94° |
| 2026-05-08 01:19 | 28.25024 | -91.67855 | 32965 ft | 443 kts | 94° |
| 2026-05-08 01:20 | 28.25018 | -91.60887 | 32970 ft | 442 kts | 94° |
| 2026-05-08 01:20 | 28.24713 | -91.57478 | 32964 ft | 430 kts | 113° |
| 2026-05-08 01:20 | 28.23417 | -91.54559 | 32999 ft | 409 kts | 137° |
| 2026-05-08 01:20 | 28.21334 | -91.52538 | 33010 ft | 384 kts | 161° |
| 2026-05-08 01:21 | 28.18859 | -91.51712 | 33001 ft | 358 kts | 186° |
| 2026-05-08 01:21 | 28.16506 | -91.52159 | 33005 ft | 336 kts | 210° |
| 2026-05-08 01:21 | 28.14695 | -91.53719 | 33002 ft | 323 kts | 235° |
| 2026-05-08 01:21 | 28.13811 | -91.56035 | 32999 ft | 323 kts | 260° |
| 2026-05-08 01:22 | 28.14045 | -91.58584 | 33003 ft | 337 kts | 284° |
| 2026-05-08 01:22 | 28.15951 | -91.63461 | 32975 ft | 333 kts | 277° |
| 2026-05-08 01:23 | 28.16519 | -91.68583 | 32969 ft | 327 kts | 268° |
| 2026-05-08 01:23 | 28.16656 | -91.73705 | 32967 ft | 325 kts | 266° |
| 2026-05-08 01:24 | 28.16687 | -91.78831 | 32965 ft | 325 kts | 266° |
| 2026-05-08 01:24 | 28.16693 | -91.83951 | 32969 ft | 325 kts | 266° |
| 2026-05-08 01:25 | 28.16692 | -91.89041 | 32967 ft | 325 kts | 266° |
| 2026-05-08 01:25 | 28.16687 | -91.94164 | 32964 ft | 324 kts | 265° |
| 2026-05-08 01:26 | 28.16680 | -91.99244 | 32965 ft | 324 kts | 266° |
| 2026-05-08 01:26 | 28.16160 | -92.04218 | 32975 ft | 318 kts | 241° |
| 2026-05-08 01:26 | 28.14652 | -92.06050 | 32998 ft | 328 kts | 217° |
| 2026-05-08 01:27 | 28.12456 | -92.06908 | 32992 ft | 349 kts | 193° |
| 2026-05-08 01:27 | 28.09968 | -92.06530 | 32993 ft | 374 kts | 168° |
| 2026-05-08 01:27 | 28.07700 | -92.04894 | 32997 ft | 402 kts | 143° |
| 2026-05-08 01:27 | 28.06093 | -92.02238 | 32995 ft | 425 kts | 119° |
| 2026-05-08 01:28 | 28.05451 | -91.98899 | 32994 ft | 440 kts | 94° |
| 2026-05-08 01:28 | 28.05945 | -91.95473 | 32997 ft | 446 kts | 70° |
| 2026-05-08 01:28 | 28.07275 | -91.92319 | 32979 ft | 447 kts | 68° |
| 2026-05-08 01:28 | 28.08013 | -91.88913 | 32996 ft | 443 kts | 86° |
| 2026-05-08 01:29 | 28.08238 | -91.85462 | 32955 ft | 443 kts | 91° |
| 2026-05-08 01:29 | 28.08347 | -91.78532 | 32966 ft | 440 kts | 94° |
| 2026-05-08 01:30 | 28.08359 | -91.71575 | 32967 ft | 440 kts | 94° |
| 2026-05-08 01:30 | 28.08355 | -91.64678 | 32964 ft | 440 kts | 94° |
| 2026-05-08 01:31 | 28.08133 | -91.57800 | 32959 ft | 430 kts | 110° |
| 2026-05-08 01:31 | 28.06941 | -91.54810 | 32999 ft | 409 kts | 134° |
| 2026-05-08 01:31 | 28.04938 | -91.52696 | 33000 ft | 387 kts | 159° |
| 2026-05-08 01:31 | 28.02488 | -91.51739 | 33004 ft | 362 kts | 183° |
| 2026-05-08 01:32 | 28.00059 | -91.52063 | 33003 ft | 340 kts | 208° |
| 2026-05-08 01:32 | 27.98173 | -91.53512 | 32997 ft | 326 kts | 232° |
| 2026-05-08 01:32 | 27.97165 | -91.55747 | 32999 ft | 324 kts | 257° |
| 2026-05-08 01:32 | 27.97250 | -91.58315 | 32999 ft | 336 kts | 281° |
| 2026-05-08 01:33 | 27.98291 | -91.60729 | 33007 ft | 344 kts | 291° |
| 2026-05-08 01:33 | 27.99194 | -91.63186 | 32966 ft | 336 kts | 279° |
| 2026-05-08 01:33 | 27.99623 | -91.65754 | 32973 ft | 331 kts | 272° |
| 2026-05-08 01:34 | 27.99935 | -91.70890 | 32959 ft | 328 kts | 267° |
| 2026-05-08 01:34 | 28.00009 | -91.76068 | 32960 ft | 327 kts | 266° |
| 2026-05-08 01:35 | 28.00025 | -91.81210 | 32966 ft | 327 kts | 266° |
| 2026-05-08 01:35 | 28.00026 | -91.86338 | 32965 ft | 327 kts | 266° |
| 2026-05-08 01:36 | 28.00023 | -91.91476 | 32956 ft | 326 kts | 266° |
| 2026-05-08 01:36 | 28.00018 | -91.96590 | 32966 ft | 326 kts | 266° |
| 2026-05-08 01:37 | 28.00008 | -92.01714 | 32958 ft | 325 kts | 265° |
| 2026-05-08 01:37 | 27.99490 | -92.04149 | 32972 ft | 319 kts | 241° |
| 2026-05-08 01:37 | 27.97978 | -92.05991 | 32991 ft | 329 kts | 217° |
| 2026-05-08 01:37 | 27.95783 | -92.06860 | 32997 ft | 348 kts | 193° |
| 2026-05-08 01:38 | 27.93316 | -92.06504 | 32993 ft | 374 kts | 168° |
| 2026-05-08 01:38 | 27.91031 | -92.04884 | 32994 ft | 401 kts | 143° |
| 2026-05-08 01:38 | 27.89417 | -92.02243 | 32992 ft | 424 kts | 119° |
| 2026-05-08 01:38 | 27.88768 | -91.98940 | 32997 ft | 439 kts | 94° |
| 2026-05-08 01:39 | 27.89236 | -91.95553 | 32993 ft | 445 kts | 70° |
| 2026-05-08 01:39 | 27.91328 | -91.88996 | 33004 ft | 441 kts | 85° |
| 2026-05-08 01:40 | 27.91650 | -91.82069 | 32968 ft | 441 kts | 92° |
| 2026-05-08 01:40 | 27.91690 | -91.75204 | 32965 ft | 438 kts | 93° |
| 2026-05-08 01:41 | 27.91691 | -91.68340 | 32970 ft | 438 kts | 93° |
| 2026-05-08 01:41 | 27.91685 | -91.61407 | 32972 ft | 439 kts | 93° |
| 2026-05-08 01:41 | 27.91509 | -91.57979 | 32953 ft | 431 kts | 108° |
| 2026-05-08 01:42 | 27.90379 | -91.54954 | 33005 ft | 412 kts | 132° |
| 2026-05-08 01:42 | 27.88413 | -91.52764 | 33003 ft | 389 kts | 157° |
| 2026-05-08 01:42 | 27.85967 | -91.51719 | 33008 ft | 365 kts | 181° |
| 2026-05-08 01:42 | 27.83538 | -91.51945 | 32999 ft | 342 kts | 206° |
| 2026-05-08 01:43 | 27.81593 | -91.53318 | 33008 ft | 327 kts | 230° |
| 2026-05-08 01:43 | 27.80488 | -91.55547 | 33002 ft | 325 kts | 255° |
| 2026-05-08 01:43 | 27.80491 | -91.58114 | 33002 ft | 336 kts | 279° |
| 2026-05-08 01:43 | 27.81488 | -91.60537 | 33005 ft | 346 kts | 292° |
| 2026-05-08 01:44 | 27.82459 | -91.62988 | 32967 ft | 338 kts | 280° |
| 2026-05-08 01:44 | 27.83152 | -91.68127 | 32969 ft | 329 kts | 269° |
| 2026-05-08 01:45 | 27.83315 | -91.73274 | 32969 ft | 327 kts | 267° |
| 2026-05-08 01:45 | 27.83352 | -91.78436 | 32970 ft | 328 kts | 266° |
| 2026-05-08 01:46 | 27.83359 | -91.83575 | 32962 ft | 328 kts | 266° |
| 2026-05-08 01:46 | 27.83358 | -91.88733 | 32961 ft | 327 kts | 266° |
| 2026-05-08 01:47 | 27.83355 | -91.93826 | 32963 ft | 326 kts | 266° |
| 2026-05-08 01:47 | 27.83347 | -91.98990 | 32968 ft | 327 kts | 266° |
| 2026-05-08 01:48 | 27.82877 | -92.04009 | 32964 ft | 321 kts | 242° |
| 2026-05-08 01:48 | 27.81410 | -92.05904 | 32991 ft | 329 kts | 218° |
| 2026-05-08 01:48 | 27.79229 | -92.06846 | 32991 ft | 349 kts | 194° |
| 2026-05-08 01:48 | 27.76742 | -92.06566 | 32986 ft | 374 kts | 169° |
| 2026-05-08 01:49 | 27.74434 | -92.05026 | 32992 ft | 399 kts | 145° |
| 2026-05-08 01:49 | 27.72763 | -92.02442 | 32988 ft | 422 kts | 120° |
| 2026-05-08 01:49 | 27.72048 | -91.99170 | 32989 ft | 438 kts | 95° |
| 2026-05-08 01:49 | 27.72458 | -91.95760 | 32989 ft | 444 kts | 71° |
| 2026-05-08 01:50 | 27.74607 | -91.89332 | 32986 ft | 441 kts | 84° |
| 2026-05-08 01:50 | 27.74976 | -91.82399 | 32959 ft | 439 kts | 92° |
| 2026-05-08 01:51 | 27.75023 | -91.75528 | 32959 ft | 438 kts | 93° |
| 2026-05-08 01:51 | 27.75024 | -91.68697 | 32959 ft | 437 kts | 93° |
| 2026-05-08 01:52 | 27.75018 | -91.61818 | 32958 ft | 437 kts | 93° |
| 2026-05-08 01:52 | 27.73969 | -91.55295 | 32997 ft | 415 kts | 128° |
| 2026-05-08 01:53 | 27.72541 | -91.52454 | 32965 ft | 424 kts | 116° |
| 2026-05-08 01:53 | 27.72007 | -91.49107 | 33022 ft | 451 kts | 92° |
| 2026-05-08 01:53 | 27.72585 | -91.45561 | 33027 ft | 476 kts | 69° |
| 2026-05-08 01:53 | 27.74279 | -91.42297 | 33116 ft | 492 kts | 47° |
| 2026-05-08 01:54 | 27.76903 | -91.39822 | 33449 ft | 491 kts | 24° |
| 2026-05-08 01:54 | 27.80037 | -91.38603 | 34560 ft | 467 kts | 1° |
| 2026-05-08 01:54 | 27.83172 | -91.38673 | 35743 ft | 437 kts | 340° |
| 2026-05-08 01:54 | 27.85908 | -91.39915 | 36675 ft | 411 kts | 318° |
| 2026-05-08 01:55 | 27.87873 | -91.42091 | 37488 ft | 389 kts | 297° |
| 2026-05-08 01:55 | 27.88846 | -91.44836 | 38181 ft | 376 kts | 276° |
| 2026-05-08 01:55 | 27.89171 | -91.47713 | 39068 ft | 371 kts | 277° |
| 2026-05-08 01:55 | 27.89952 | -91.50494 | 39755 ft | 376 kts | 290° |
| 2026-05-08 01:56 | 27.91215 | -91.53123 | 40474 ft | 380 kts | 295° |
| 2026-05-08 01:56 | 27.92638 | -91.55638 | 41308 ft | 379 kts | 298° |
| 2026-05-08 01:56 | 27.94103 | -91.58056 | 42072 ft | 378 kts | 298° |
| 2026-05-08 01:56 | 27.95611 | -91.60473 | 42771 ft | 376 kts | 299° |
| 2026-05-08 01:57 | 27.97138 | -91.62889 | 43419 ft | 375 kts | 299° |
| 2026-05-08 01:57 | 27.98654 | -91.65277 | 43928 ft | 376 kts | 299° |
| 2026-05-08 01:57 | 28.00185 | -91.67687 | 44533 ft | 374 kts | 299° |
| 2026-05-08 01:57 | 28.01681 | -91.70039 | 45014 ft | 374 kts | 299° |
| 2026-05-08 01:58 | 28.04759 | -91.74880 | 44975 ft | 380 kts | 299° |
| 2026-05-08 01:58 | 28.07803 | -91.79668 | 44956 ft | 370 kts | 299° |
| 2026-05-08 01:59 | 28.10789 | -91.84374 | 44970 ft | 367 kts | 298° |
| 2026-05-08 01:59 | 28.13776 | -91.89088 | 44966 ft | 370 kts | 299° |
| 2026-05-08 02:00 | 28.16793 | -91.93851 | 44968 ft | 370 kts | 298° |
| 2026-05-08 02:00 | 28.19806 | -91.98620 | 44972 ft | 378 kts | 299° |
| 2026-05-08 02:01 | 28.22940 | -92.03582 | 44972 ft | 395 kts | 299° |
| 2026-05-08 02:01 | 28.26196 | -92.08741 | 44972 ft | 411 kts | 299° |
| 2026-05-08 02:02 | 28.29565 | -92.14085 | 44969 ft | 425 kts | 299° |
| 2026-05-08 02:02 | 28.33058 | -92.19633 | 44958 ft | 439 kts | 300° |
| 2026-05-08 02:03 | 28.36641 | -92.25331 | 44967 ft | 450 kts | 300° |
| 2026-05-08 02:03 | 28.40273 | -92.31114 | 44966 ft | 446 kts | 299° |
| 2026-05-08 02:04 | 28.43854 | -92.36823 | 44953 ft | 439 kts | 299° |
| 2026-05-08 02:04 | 28.47386 | -92.42465 | 44959 ft | 440 kts | 299° |
| 2026-05-08 02:05 | 28.50946 | -92.48161 | 44961 ft | 442 kts | 299° |
| 2026-05-08 02:05 | 28.54514 | -92.53873 | 44962 ft | 442 kts | 299° |
| 2026-05-08 02:06 | 28.58066 | -92.59570 | 44960 ft | 442 kts | 300° |
| 2026-05-08 02:06 | 28.61606 | -92.65252 | 44962 ft | 440 kts | 299° |
| 2026-05-08 02:07 | 28.65145 | -92.70943 | 44977 ft | 440 kts | 299° |
| 2026-05-08 02:07 | 28.68694 | -92.76657 | 44981 ft | 441 kts | 299° |
| 2026-05-08 02:08 | 28.72201 | -92.82312 | 44986 ft | 440 kts | 298° |
| 2026-05-08 02:08 | 28.75733 | -92.88013 | 44984 ft | 440 kts | 298° |
| 2026-05-08 02:09 | 28.79264 | -92.93722 | 44978 ft | 440 kts | 298° |
| 2026-05-08 02:09 | 28.80425 | -92.95599 | 44985 ft | 439 kts | 298° |
| 2026-05-08 02:10 | 28.86280 | -93.05087 | 44983 ft | 439 kts | 298° |
| 2026-05-08 02:10 | 28.89797 | -93.10795 | 44983 ft | 439 kts | 299° |
| 2026-05-08 02:11 | 28.93316 | -93.16514 | 44990 ft | 438 kts | 298° |
| 2026-05-08 02:11 | 28.96839 | -93.22249 | 44983 ft | 438 kts | 298° |
| 2026-05-08 02:12 | 29.00338 | -93.27953 | 44982 ft | 438 kts | 298° |
| 2026-05-08 02:12 | 29.03831 | -93.33652 | 44985 ft | 439 kts | 298° |
| 2026-05-08 02:13 | 29.07313 | -93.39341 | 44980 ft | 437 kts | 298° |
| 2026-05-08 02:13 | 29.10791 | -93.45036 | 44738 ft | 441 kts | 298° |
| 2026-05-08 02:14 | 29.12569 | -93.47951 | 44085 ft | 445 kts | 298° |
| 2026-05-08 02:14 | 29.14308 | -93.50794 | 43297 ft | 431 kts | 298° |
| 2026-05-08 02:14 | 29.16001 | -93.53572 | 42542 ft | 429 kts | 298° |
| 2026-05-08 02:14 | 29.17685 | -93.56384 | 41499 ft | 425 kts | 295° |
| 2026-05-08 02:15 | 29.18808 | -93.59412 | 40287 ft | 399 kts | 278° |
| 2026-05-08 02:15 | 29.19070 | -93.62463 | 39549 ft | 387 kts | 269° |
| 2026-05-08 02:15 | 29.19218 | -93.65541 | 38587 ft | 386 kts | 270° |
| 2026-05-08 02:15 | 29.19391 | -93.68609 | 37711 ft | 387 kts | 270° |
| 2026-05-08 02:16 | 29.19571 | -93.71655 | 36831 ft | 390 kts | 270° |
| 2026-05-08 02:16 | 29.19757 | -93.74764 | 35812 ft | 394 kts | 270° |
| 2026-05-08 02:16 | 29.19946 | -93.77907 | 34806 ft | 398 kts | 270° |
| 2026-05-08 02:16 | 29.20137 | -93.81062 | 33810 ft | 403 kts | 270° |
| 2026-05-08 02:17 | 29.20327 | -93.84232 | 32846 ft | 407 kts | 270° |
| 2026-05-08 02:17 | 29.20522 | -93.87472 | 31957 ft | 410 kts | 270° |
| 2026-05-08 02:17 | 29.20716 | -93.90731 | 31070 ft | 413 kts | 270° |
| 2026-05-08 02:17 | 29.20911 | -93.94011 | 30181 ft | 411 kts | 271° |
| 2026-05-08 02:18 | 29.21103 | -93.97242 | 29298 ft | 408 kts | 271° |
| 2026-05-08 02:18 | 29.21293 | -94.00472 | 28425 ft | 404 kts | 271° |
| 2026-05-08 02:18 | 29.21481 | -94.03636 | 27565 ft | 401 kts | 271° |
| 2026-05-08 02:18 | 29.21667 | -94.06818 | 26686 ft | 399 kts | 271° |
| 2026-05-08 02:19 | 29.21851 | -94.09969 | 25813 ft | 396 kts | 271° |
| 2026-05-08 02:19 | 29.22030 | -94.13052 | 24952 ft | 393 kts | 271° |
| 2026-05-08 02:19 | 29.22208 | -94.16147 | 24084 ft | 391 kts | 271° |
| 2026-05-08 02:19 | 29.22386 | -94.19231 | 23225 ft | 388 kts | 271° |
| 2026-05-08 02:20 | 29.22563 | -94.22297 | 22280 ft | 375 kts | 271° |
| 2026-05-08 02:20 | 29.22730 | -94.25196 | 21570 ft | 363 kts | 270° |
| 2026-05-08 02:20 | 29.22891 | -94.28047 | 20728 ft | 364 kts | 270° |
| 2026-05-08 02:20 | 29.23052 | -94.30894 | 19905 ft | 364 kts | 270° |
| 2026-05-08 02:21 | 29.23216 | -94.33806 | 19059 ft | 364 kts | 270° |
| 2026-05-08 02:21 | 29.23376 | -94.36654 | 18235 ft | 364 kts | 270° |
| 2026-05-08 02:21 | 29.23537 | -94.39532 | 17388 ft | 364 kts | 270° |
| 2026-05-08 02:21 | 29.23698 | -94.42413 | 16531 ft | 363 kts | 270° |
| 2026-05-08 02:22 | 29.23890 | -94.45266 | 15660 ft | 360 kts | 275° |
| 2026-05-08 02:22 | 29.24655 | -94.47870 | 14327 ft | 354 kts | 296° |